April 13, 2021
Temp
 
58.4 °F
 
Dew Pt.
 
52.3 °F
 
Humidity
 
80%
 
Pressure
 
1010.9 hPa 
  steady
Wind
 
0.0 mph 
    WSW
Rain
 
0.00 in 
  0.00 in/hr
UV index
 
---  
 
Solar rad.
 
100 W/m²
 
Overnight

Overnight: Patchy drizzle and fog.  Mostly cloudy, with a low around 54. Calm wind.
Patchy
Drizzle and
Patchy Fog

Tuesday

Tuesday: Patchy drizzle and fog before 11am.  Partly sunny, with a high near 67. Light south southwest wind increasing to 5 to 10 mph in the afternoon. Winds could gust as high as 15 mph.
Patchy
Drizzle and
Patchy Fog
then Partly
Sunny
Lo 54 °F Hi 67 °F
MAP MAG LOCAL DATETIME
y/m/d h:m:s
LAT
deg
LON
deg
DEPTH
km
LOCATION
map1.52021/04/13 02:30:3633.079N115.557W10.34 7 km ( 4 mi) SW of Calipatria, CA
map0.82021/04/13 01:56:4835.880N117.698W2.02 20 km (12 mi) ESE of Little Lake, CA
map0.72021/04/13 01:09:1335.630N117.456W9.75 16 km (10 mi) SSW of Searles Valley, CA
map2.22021/04/13 00:54:5332.901N115.524W4.96 7 km ( 5 mi) NE of Imperial, CA
map0.52021/04/13 00:49:2633.600N116.804W6.26 13 km ( 8 mi) WNW of Anza, CA
map0.42021/04/13 00:40:2535.916N117.728W3.67 16 km (10 mi) E of Little Lake, CA
map0.62021/04/13 00:37:3335.911N117.730W3.38 16 km (10 mi) E of Little Lake, CA
map0.52021/04/13 00:12:1435.903N117.733W2.66 16 km (10 mi) ESE of Little Lake, CA
map1.82021/04/13 00:08:5035.915N117.731W2.83 16 km (10 mi) E of Little Lake, CA
map1.62021/04/13 00:04:3833.493N116.788W6.32 9 km ( 6 mi) NE of Aguanga, CA
map0.52021/04/13 00:03:0038.775N122.757W-0.54 0 km ( 0 mi) S of The Geysers, CA
map2.22021/04/12 23:19:4136.566N121.122W7.33 24 km (15 mi) NE of Soledad, CA
map0.52021/04/12 22:48:3738.792N122.734W1.97 3 km ( 2 mi) NE of The Geysers, CA
map1.22021/04/12 22:47:3733.028N115.587W4.73 3 km ( 2 mi) ESE of Westmorland, CA
map1.22021/04/12 22:44:4533.704N116.719W17.25 4 km ( 2 mi) S of Idyllwild, CA
map1.22021/04/12 22:39:2740.340N121.339W4.71 10 km ( 6 mi) WNW of Chester, CA
map1.82021/04/12 22:18:1138.173N118.067W6.4 62 km (39 mi) SE of Hawthorne, NV
map1.02021/04/12 22:12:1735.590N118.253W2.41 20 km (13 mi) E of Lake Isabella, CA
map1.02021/04/12 21:40:0236.207N117.882W1.61 14 km ( 9 mi) SE of Olancha, CA
map0.92021/04/12 21:06:1635.959N117.987W2.37 8 km ( 5 mi) WNW of Little Lake, CA
map0.62021/04/12 20:46:0738.159N117.898W12.8 59 km (37 mi) W of Tonopah, NV
map1.42021/04/12 20:19:0333.274N117.508W14.58 13 km ( 8 mi) WNW of Camp Pendleton South, CA
map1.12021/04/12 20:13:3038.437N118.017W1.2 54 km (33 mi) E of Hawthorne, NV
map1.42021/04/12 20:08:2338.148N117.965W12.5 65 km (40 mi) W of Tonopah, NV
map1.42021/04/12 19:43:3133.999N116.705W14.88 12 km ( 7 mi) NE of Cabazon, CA
map1.42021/04/12 19:23:3238.157N118.179W0.1 56 km (35 mi) SE of Hawthorne, NV
map0.52021/04/12 19:02:3237.623N122.496W7.29 1 km ( 1 mi) NW of Pacifica, CA
map1.12021/04/12 19:01:5433.262N117.526W12.43 14 km ( 9 mi) WNW of Camp Pendleton South, CA
map1.82021/04/12 18:03:5035.988N120.555W5.17 15 km ( 9 mi) NW of Parkfield, CA
map1.22021/04/12 16:31:2236.208N117.900W2.08 13 km ( 8 mi) SE of Olancha, CA
map1.22021/04/12 16:17:3533.142N115.947W13.98 17 km (11 mi) E of Ocotillo Wells, CA
map0.92021/04/12 15:33:2840.402N121.681W15.38 20 km (13 mi) ESE of Shingletown, CA
map1.62021/04/12 15:28:4334.809N118.922W14.67 3 km ( 2 mi) SE of Frazier Park, CA
map1.92021/04/12 15:25:0832.601N116.993W3.71 2 km ( 1 mi) WSW of Quarry at SYS-1 (Probable quarry explosion)
map1.42021/04/12 15:18:0038.156N117.906W7.4 60 km (37 mi) W of Tonopah, NV
map2.22021/04/12 14:54:1438.569N118.234W4.2 34 km (21 mi) E of Hawthorne, NV
map1.22021/04/12 14:50:0338.166N117.862W9.2 56 km (35 mi) W of Tonopah, NV
map1.22021/04/12 14:48:0133.914N117.078W15.53 9 km ( 5 mi) SSW of Calimesa, CA
map0.72021/04/12 14:39:2535.618N117.600W7.13 7 km ( 4 mi) E of Ridgecrest, CA
map1.52021/04/12 14:36:2935.754N117.571W7.79 15 km ( 9 mi) W of Searles Valley, CA
map1.22021/04/12 14:18:3636.206N117.886W2.81 14 km ( 8 mi) SE of Olancha, CA
map0.62021/04/12 14:16:0538.820N122.779W0.65 5 km ( 3 mi) W of Cobb, CA
map1.22021/04/12 13:41:3437.625N122.495W7.43 1 km ( 1 mi) NNW of Pacifica, CA
map1.22021/04/12 13:03:1037.624N122.512W8.24 2 km ( 2 mi) WNW of Pacifica, CA
map1.72021/04/12 12:47:5432.750N115.814W10.29 17 km (10 mi) E of Ocotillo, CA
map0.62021/04/12 12:36:4838.806N122.817W3.04 6 km ( 4 mi) WNW of The Geysers, CA
map1.22021/04/12 12:31:3236.090N117.869W3.69 9 km ( 5 mi) NE of Coso Junction, CA
map1.42021/04/12 12:07:5936.089N117.869W2.78 9 km ( 5 mi) NE of Coso Junction, CA
map1.32021/04/12 12:05:1034.990N118.186W-0.8 3 km ( 2 mi) SW of Quarry at TPO-DBM (Probable quarry explosion)
map1.12021/04/12 11:55:0734.181N117.915W-0.81 22 km (14 mi) NNW of Quarry at POMONA (Probable quarry explosion)
map0.12021/04/12 11:49:3035.799N117.606W6.65 19 km (12 mi) W of Searles Valley, CA
map1.92021/04/12 11:45:1136.294N121.166W8.43 8 km ( 5 mi) ESE of Greenfield, CA
map0.92021/04/12 11:37:1638.833N122.816W1.76 8 km ( 5 mi) NW of The Geysers, CA
map1.22021/04/12 11:37:0538.833N122.817W1.82 8 km ( 5 mi) NW of The Geysers, CA
map1.12021/04/12 11:27:3933.140N115.962W2.83 16 km (10 mi) E of Ocotillo Wells, CA
map0.12021/04/12 10:48:1338.805N122.821W2.48 6 km ( 4 mi) WNW of The Geysers, CA
map0.72021/04/12 10:15:3533.685N116.795W16.15 9 km ( 6 mi) SW of Idyllwild, CA
map1.42021/04/12 10:09:2635.156N118.398W-0.8 2 km ( 1 mi) WNW of Quarry at MONOLITH (Probable quarry explosion)
map0.42021/04/12 10:08:5133.520N116.739W2.53 7 km ( 4 mi) WSW of Anza, CA
map0.32021/04/12 10:01:2538.797N122.760W3.33 2 km ( 1 mi) N of The Geysers, CA
map1.12021/04/12 09:12:3333.398N116.371W8 16 km (10 mi) N of Borrego Springs, CA
map0.32021/04/12 08:44:1736.211N117.880W1.77 14 km ( 9 mi) SE of Olancha, CA
map1.12021/04/12 08:43:5535.646N117.595W8.26 8 km ( 5 mi) ENE of Ridgecrest, CA
map1.02021/04/12 08:18:2234.155N117.434W11.78 7 km ( 4 mi) NNE of Fontana, CA
map0.32021/04/12 08:14:3735.983N117.313W4.42 25 km (16 mi) NNE of Trona, CA
map0.62021/04/12 08:14:2335.978N117.328W4.13 24 km (15 mi) N of Trona, CA
map1.42021/04/12 08:02:1635.902N117.686W8.5 20 km (13 mi) E of Little Lake, CA
map1.12021/04/12 07:52:5432.751N115.813W10.26 17 km (11 mi) E of Ocotillo, CA
map1.72021/04/12 07:52:0732.749N115.817W9.58 17 km (10 mi) E of Ocotillo, CA
map2.22021/04/12 07:48:3232.747N115.822W9.13 16 km (10 mi) E of Ocotillo, CA
map1.72021/04/12 07:34:5139.032N123.070W4.1 13 km ( 8 mi) W of Lakeport, CA
map0.32021/04/12 07:34:0333.594N116.809W5.71 13 km ( 8 mi) WNW of Anza, CA
map1.42021/04/12 07:25:5333.181N115.622W2.26 12 km ( 7 mi) SW of Niland, CA
map0.02021/04/12 07:17:1333.570N116.657W1.15 2 km ( 1 mi) NE of Anza, CA
map1.52021/04/12 06:27:1235.761N117.585W6.49 16 km (10 mi) W of Searles Valley, CA
map0.32021/04/12 06:01:0433.519N116.739W2.46 7 km ( 4 mi) SW of Anza, CA
map1.22021/04/12 05:18:2237.626N122.502W7.91 2 km ( 1 mi) NW of Pacifica, CA
map0.72021/04/12 05:06:2733.986N116.609W15.32 7 km ( 5 mi) SSW of Morongo Valley, CA
map0.92021/04/12 04:59:1933.363N116.323W9.39 13 km ( 8 mi) NNE of Borrego Springs, CA
map0.92021/04/12 04:55:2237.625N122.503W7.73 2 km ( 1 mi) NW of Pacifica, CA
map1.02021/04/12 04:52:4937.596N121.650W0.54 14 km ( 9 mi) SE of Livermore, CA
map1.22021/04/12 04:39:0338.196N117.896W6.4 60 km (37 mi) WNW of Tonopah, NV
map1.22021/04/12 04:30:3535.879N117.695W4.3 20 km (13 mi) ESE of Little Lake, CA
map1.12021/04/12 03:49:5235.672N117.478W2.86 13 km ( 8 mi) SSW of Searles Valley, CA
map0.82021/04/12 03:48:2335.662N117.438W3.87 12 km ( 8 mi) SSW of Searles Valley, CA
map2.22021/04/12 03:32:2636.483N117.972W9.56 14 km ( 9 mi) SE of Lone Pine, CA
map0.82021/04/12 03:13:5738.842N122.878W2.65 13 km ( 8 mi) ENE of Cloverdale, CA
map2.32021/04/12 02:46:1933.857N119.406W5.93 22 km (14 mi) SSE of Santa Cruz Is. (E end), CA
map0.82021/04/12 02:42:5538.825N122.813W1.88 7 km ( 5 mi) NW of The Geysers, CA
map0.92021/04/12 01:40:2938.824N122.812W1.65 7 km ( 4 mi) NW of The Geysers, CA
map1.92021/04/12 01:08:0338.804N122.820W2.29 6 km ( 4 mi) WNW of The Geysers, CA
map1.12021/04/12 01:00:1538.808N122.738W1.57 2 km ( 1 mi) SW of Cobb, CA
map1.52021/04/12 00:53:1438.775N122.745W0.96 1 km ( 1 mi) ESE of The Geysers, CA
map1.12021/04/12 00:44:4838.164N117.896W11.9 59 km (37 mi) W of Tonopah, NV
map0.82021/04/12 00:23:4638.156N117.891W6.8 59 km (36 mi) W of Tonopah, NV
map1.52021/04/12 00:22:2440.887N122.370W4.19 23 km (14 mi) N of Shasta Lake, CA
map0.82021/04/11 23:39:4738.823N122.813W1.62 7 km ( 4 mi) NW of The Geysers, CA
map0.62021/04/11 23:36:1433.039N116.432W10.08 16 km (10 mi) ESE of Julian, CA
map0.32021/04/11 23:31:1034.011N117.013W11.21 4 km ( 2 mi) SE of Yucaipa, CA
map0.62021/04/11 22:57:1837.624N122.499W7.88 2 km ( 1 mi) NW of Pacifica, CA
map1.32021/04/11 22:48:1838.414N118.903W0.0 27 km (17 mi) WSW of Hawthorne, NV
map0.72021/04/11 22:44:3537.624N122.497W7.47 1 km ( 1 mi) NW of Pacifica, CA
map1.02021/04/11 22:41:1437.609N118.821W3.64 14 km ( 9 mi) ESE of Mammoth Lakes, CA
map2.02021/04/11 22:29:0138.822N122.811W1.58 7 km ( 4 mi) NW of The Geysers, CA
map1.32021/04/11 22:28:1538.160N117.844W8.7 55 km (34 mi) W of Tonopah, NV
map1.22021/04/11 22:15:5038.172N117.865W3.6 57 km (35 mi) WNW of Tonopah, NV
map1.32021/04/11 22:08:0238.162N118.085W6.1 62 km (38 mi) SE of Hawthorne, NV
map0.82021/04/11 21:58:1233.892N116.547W12.73 1 km ( 1 mi) S of Garnet, CA
map1.12021/04/11 21:49:3833.771N116.906W11.34 3 km ( 2 mi) NNW of Valle Vista, CA
map1.52021/04/11 21:32:4537.629N122.507W8.17 2 km ( 2 mi) NW of Pacifica, CA
map0.62021/04/11 21:32:3433.296N116.273W4.87 10 km ( 7 mi) ENE of Borrego Springs, CA
map1.82021/04/11 21:30:2138.831N122.815W1.42 8 km ( 5 mi) NW of The Geysers, CA
map1.42021/04/11 21:02:5138.516N118.211W1.2 36 km (22 mi) E of Hawthorne, NV
map2.12021/04/11 20:47:0537.626N122.514W8.66 3 km ( 2 mi) WNW of Pacifica, CA
map0.72021/04/11 20:43:5236.134N117.823W3.72 15 km ( 9 mi) NE of Coso Junction, CA
map1.02021/04/11 20:38:2836.010N117.885W4.83 7 km ( 4 mi) SE of Coso Junction, CA
map1.62021/04/11 20:31:5638.782N122.764W0.76 1 km ( 1 mi) NW of The Geysers, CA
map2.32021/04/11 20:30:0640.539N121.573W2.72 27 km (17 mi) E of Shingletown, CA
map1.52021/04/11 20:18:5438.169N117.832W7.6 54 km (33 mi) WNW of Tonopah, NV
map0.62021/04/11 20:12:3338.697N119.552W12.2 20 km (13 mi) WSW of Smith Valley, NV
map0.52021/04/11 19:53:1133.987N116.999W16.96 5 km ( 3 mi) E of Calimesa, CA
map0.52021/04/11 19:18:1637.569N118.871W5.38 12 km ( 8 mi) SE of Mammoth Lakes, CA
map1.62021/04/11 18:57:2035.751N117.582W3.32 16 km (10 mi) W of Searles Valley, CA
map1.42021/04/11 18:55:5137.396N117.918W12.5 42 km (26 mi) NE of Big Pine, CA
map2.22021/04/11 18:53:4037.399N117.929W9.92 41 km (26 mi) NE of Big Pine, CA
map0.92021/04/11 18:48:2435.965N117.752W6.09 14 km ( 9 mi) ENE of Little Lake, CA
map0.62021/04/11 18:43:1338.826N122.812W2 7 km ( 5 mi) NW of The Geysers, CA
map0.82021/04/11 18:41:3036.208N117.888W2.45 13 km ( 8 mi) SE of Olancha, CA
map0.62021/04/11 18:36:4335.885N117.730W9.35 17 km (11 mi) ESE of Little Lake, CA
map1.62021/04/11 18:30:4933.926N116.323W8.67 13 km ( 8 mi) NNE of Thousand Palms, CA
map0.12021/04/11 18:26:3338.795N122.811W3.44 5 km ( 3 mi) WNW of The Geysers, CA
map1.12021/04/11 18:15:0438.830N122.812W2.08 8 km ( 5 mi) NW of The Geysers, CA
map0.72021/04/11 18:14:4938.829N122.880W2.29 12 km ( 8 mi) WNW of The Geysers, CA
map1.32021/04/11 18:11:4532.928N115.814W7.75 22 km (13 mi) SW of Westmorland, CA
map1.12021/04/11 18:06:4038.834N122.784W1.9 5 km ( 3 mi) WNW of Cobb, CA
map0.92021/04/11 18:04:2936.209N117.891W1.76 13 km ( 8 mi) SE of Olancha, CA
map1.22021/04/11 18:03:1238.833N122.783W1.66 5 km ( 3 mi) WNW of Cobb, CA
map1.82021/04/11 17:48:5334.342N116.468W9.29 26 km (16 mi) N of Yucca Valley, CA
map1.12021/04/11 17:12:4838.804N122.778W2.08 4 km ( 2 mi) NNW of The Geysers, CA
map0.72021/04/11 17:04:4938.829N122.811W2 7 km ( 5 mi) NW of The Geysers, CA
map0.32021/04/11 16:59:3840.462N121.549W2.54 29 km (18 mi) E of Shingletown, CA
map0.62021/04/11 16:59:3533.690N116.785W17.09 8 km ( 5 mi) SW of Idyllwild, CA
map0.72021/04/11 16:45:5733.727N117.506W12.48 10 km ( 6 mi) NE of Trabuco Canyon, CA
map1.32021/04/11 16:25:5038.056N118.895W4.42 47 km (29 mi) N of Mammoth Lakes, CA
map1.42021/04/11 16:17:5535.035N117.681W-0.82 1 km ( 0 mi) N of Quarry at BORON (Probable quarry explosion)
map1.22021/04/11 16:03:1638.824N122.811W1.37 7 km ( 4 mi) NW of The Geysers, CA
map1.12021/04/11 16:01:3638.825N122.810W1.47 7 km ( 4 mi) NW of The Geysers, CA
map2.52021/04/11 15:57:3138.824N122.810W1.59 7 km ( 4 mi) NW of The Geysers, CA
map0.12021/04/11 15:37:3138.794N122.811W3.58 5 km ( 3 mi) WNW of The Geysers, CA
map0.62021/04/11 15:32:3438.825N122.813W2.05 7 km ( 4 mi) NW of The Geysers, CA
map0.72021/04/11 15:30:0138.829N122.812W2.09 8 km ( 5 mi) NW of The Geysers, CA
map2.12021/04/11 15:16:2138.827N122.814W2.07 7 km ( 5 mi) NW of The Geysers, CA
map0.82021/04/11 15:12:0838.826N122.813W1.93 7 km ( 5 mi) NW of The Geysers, CA
map1.12021/04/11 15:09:0636.207N117.887W2.38 13 km ( 8 mi) SE of Olancha, CA
map2.72021/04/11 15:03:2938.828N122.813W1.87 7 km ( 5 mi) NW of The Geysers, CA
map1.92021/04/11 14:12:5838.114N118.087W5.2 65 km (41 mi) SE of Hawthorne, NV
map2.12021/04/11 14:10:3837.464N121.820W6.51 9 km ( 5 mi) ENE of Milpitas, CA
map0.92021/04/11 13:32:3336.027N117.773W1.94 16 km (10 mi) NE of Little Lake, CA
map1.12021/04/11 13:32:0635.892N117.697W7.08 19 km (12 mi) ESE of Little Lake, CA
map1.02021/04/11 13:22:0438.834N122.806W1.75 7 km ( 5 mi) W of Cobb, CA
map1.42021/04/11 13:18:3232.879N115.493W7.94 8 km ( 5 mi) ENE of Imperial, CA
map1.22021/04/11 13:14:5636.209N117.885W1.68 13 km ( 8 mi) SE of Olancha, CA
map1.02021/04/11 13:11:3338.834N122.806W1.77 7 km ( 5 mi) W of Cobb, CA
map0.42021/04/11 13:04:2133.562N116.654W10.68 2 km ( 1 mi) ENE of Anza, CA
map0.52021/04/11 13:00:0337.572N118.868W4.99 12 km ( 8 mi) SE of Mammoth Lakes, CA
map1.62021/04/11 12:59:0340.243N124.278W7.35 32 km (20 mi) SSW of Rio Dell, CA
map0.52021/04/11 12:50:0835.889N117.691W4.47 20 km (12 mi) ESE of Little Lake, CA
map0.22021/04/11 12:49:4136.006N117.719W2.33 19 km (12 mi) ENE of Little Lake, CA
map1.12021/04/11 12:19:3838.830N122.819W1.86 8 km ( 5 mi) NW of The Geysers, CA
map0.72021/04/11 12:03:0834.013N117.233W16.96 5 km ( 3 mi) SE of Loma Linda, CA
map0.72021/04/11 12:02:3033.697N116.804W15.91 9 km ( 6 mi) WSW of Idyllwild, CA
map0.62021/04/11 11:50:2138.822N122.765W2.32 4 km ( 2 mi) W of Cobb, CA
map0.52021/04/11 11:36:2135.889N117.691W4.31 20 km (12 mi) ESE of Little Lake, CA
map1.22021/04/11 10:57:5138.156N117.795W11.9 50 km (31 mi) W of Tonopah, NV
map1.22021/04/11 10:53:1835.893N117.718W6.78 18 km (11 mi) ESE of Little Lake, CA
map1.32021/04/11 10:52:2939.401N119.245W11.6 2 km ( 2 mi) SW of Silver Springs, NV
map1.22021/04/11 10:33:3638.823N122.845W2.05 9 km ( 6 mi) NW of The Geysers, CA
map0.12021/04/11 10:09:1035.753N117.546W10.22 13 km ( 8 mi) W of Searles Valley, CA
map0.72021/04/11 10:08:3636.205N117.889W4.04 13 km ( 8 mi) SE of Olancha, CA
map0.22021/04/11 10:06:2437.637N118.882W5.57 9 km ( 5 mi) E of Mammoth Lakes, CA
map2.42021/04/11 09:55:5838.811N122.829W1.23 7 km ( 5 mi) WNW of The Geysers, CA
map1.42021/04/11 09:49:0738.150N118.004W11.7 68 km (42 mi) W of Tonopah, NV
map1.62021/04/11 09:31:1536.206N117.888W1.6 13 km ( 8 mi) SE of Olancha, CA
map1.42021/04/11 09:28:3836.204N117.891W1.73 13 km ( 8 mi) SE of Olancha, CA
map1.02021/04/11 09:18:3539.353N119.734W9.5 18 km (11 mi) NW of Dayton, NV
map0.62021/04/11 09:10:5233.227N116.737W10.67 3 km ( 2 mi) SE of Lake Henshaw, CA
map1.02021/04/11 08:55:2633.705N116.716W15.47 4 km ( 2 mi) S of Idyllwild, CA
map1.22021/04/11 08:51:5034.206N116.829W6.67 6 km ( 4 mi) SSE of Big Bear City, CA
map0.12021/04/11 08:26:4437.567N118.861W6.06 13 km ( 8 mi) SE of Mammoth Lakes, CA
map0.62021/04/11 08:24:5537.568N118.861W6.24 13 km ( 8 mi) SE of Mammoth Lakes, CA
map1.62021/04/11 08:15:1837.568N118.866W5.55 13 km ( 8 mi) SE of Mammoth Lakes, CA
map0.12021/04/11 08:13:4337.567N118.861W6.33 13 km ( 8 mi) SE of Mammoth Lakes, CA
map0.62021/04/11 08:12:4238.822N122.765W2.04 4 km ( 2 mi) W of Cobb, CA
map2.32021/04/11 07:56:3435.970N117.473W2.86 23 km (15 mi) NNW of Searles Valley, CA
map1.52021/04/11 07:46:2137.267N121.646W0.54 15 km ( 9 mi) N of Morgan Hill, CA
map0.72021/04/11 07:33:3137.569N118.870W5.35 12 km ( 8 mi) SE of Mammoth Lakes, CA
map1.02021/04/11 07:12:2936.206N117.887W1.77 14 km ( 8 mi) SE of Olancha, CA
map0.52021/04/11 07:05:3238.822N122.770W5.8 4 km ( 2 mi) W of Cobb, CA
map1.82021/04/11 06:51:0537.567N118.866W5.53 13 km ( 8 mi) SE of Mammoth Lakes, CA
map1.52021/04/11 06:50:5839.408N123.263W8.13 8 km ( 5 mi) E of Willits, CA
map0.52021/04/11 06:44:4735.614N117.579W3.96 9 km ( 5 mi) E of Ridgecrest, CA
map1.32021/04/11 06:44:3035.489N118.460W3.31 11 km ( 7 mi) SSE of Bodfish, CA
map1.82021/04/11 06:27:5935.971N120.948W9.04 28 km (17 mi) NNW of Lake Nacimiento, CA
map0.92021/04/11 06:26:2436.204N117.893W1.71 13 km ( 8 mi) SE of Olancha, CA
map1.02021/04/11 06:06:2433.247N115.966W6.28 6 km ( 4 mi) S of Salton City, CA
map1.22021/04/11 05:53:2037.904N118.555W6.73 48 km (30 mi) NE of Mammoth Lakes, CA
map1.12021/04/11 05:42:0737.279N117.709W0.0 53 km (33 mi) ENE of Big Pine, CA
map1.32021/04/11 05:42:0532.752N115.802W7.61 18 km (11 mi) E of Ocotillo, CA
map0.62021/04/11 05:36:4734.146N117.469W6.35 5 km ( 3 mi) N of Fontana, CA
map0.42021/04/11 05:30:4933.706N116.792W18.51 8 km ( 5 mi) WSW of Idyllwild, CA
map0.82021/04/11 05:11:0136.127N117.833W3.18 14 km ( 9 mi) NE of Coso Junction, CA
map0.92021/04/11 04:52:5735.787N117.600W6.87 18 km (11 mi) W of Searles Valley, CA
map1.52021/04/11 04:47:3937.688N119.433W-0.94 14 km ( 9 mi) ESE of Yosemite Valley, CA
map1.12021/04/11 04:38:3236.208N117.891W1.46 13 km ( 8 mi) SE of Olancha, CA
map1.02021/04/11 04:34:1136.208N117.890W1.5 13 km ( 8 mi) SE of Olancha, CA
map0.62021/04/11 04:18:4938.091N118.050W3.1 69 km (43 mi) SE of Hawthorne, NV
map1.02021/04/11 04:17:4836.206N117.891W1.03 13 km ( 8 mi) SE of Olancha, CA
map0.72021/04/11 03:53:1635.982N117.451W1.84 24 km (15 mi) N of Searles Valley, CA
map1.22021/04/11 03:51:1532.737N115.831W3.91 15 km ( 9 mi) E of Ocotillo, CA
map0.62021/04/11 03:47:3234.333N117.783W6.51 14 km ( 9 mi) WSW of Wrightwood, CA
map-0.02021/04/11 03:42:5533.589N116.809W5.53 13 km ( 8 mi) WNW of Anza, CA
map0.42021/04/11 03:31:5933.149N116.536W11.42 10 km ( 6 mi) NE of Julian, CA
map0.22021/04/11 03:24:3535.881N117.692W4.46 20 km (13 mi) ESE of Little Lake, CA
map0.52021/04/11 03:24:1236.203N117.890W2.34 14 km ( 8 mi) SE of Olancha, CA
map2.42021/04/11 03:21:0636.205N117.885W1.96 14 km ( 9 mi) SE of Olancha, CA
map1.02021/04/11 03:05:3033.147N115.950W13.46 17 km (10 mi) S of Salton City, CA
map0.62021/04/11 03:03:2438.818N122.824W2.18 7 km ( 5 mi) NW of The Geysers, CA
map0.82021/04/11 02:59:0536.139N117.841W5.55 14 km ( 9 mi) NE of Coso Junction, CA
map1.02021/04/11 02:48:4236.133N117.818W2.12 15 km ( 9 mi) NE of Coso Junction, CA
MAP3.12021/04/11 02:45:3635.785N117.603W6.61 18 km (11 mi) W of Searles Valley, CA
map0.12021/04/11 02:43:5337.528N118.877W4.32 15 km ( 9 mi) SE of Mammoth Lakes, CA
map0.62021/04/11 02:39:4933.712N116.746W15.94 4 km ( 2 mi) SW of Idyllwild, CA
map2.32021/04/11 02:02:3737.584N121.675W3.64 14 km ( 8 mi) SE of Livermore, CA
map1.02021/04/11 02:00:5335.708N117.509W5.18 12 km ( 7 mi) SW of Searles Valley, CA
map0.82021/04/11 01:49:5735.720N117.550W11.47 14 km ( 9 mi) WSW of Searles Valley, CA
map1.72021/04/11 01:47:5036.009N117.721W1.65 19 km (12 mi) ENE of Little Lake, CA
map1.12021/04/11 01:35:5833.288N116.274W2.08 10 km ( 6 mi) ENE of Borrego Springs, CA
map1.62021/04/11 01:33:1838.181N117.876W12.6 58 km (36 mi) WNW of Tonopah, NV
map2.42021/04/11 01:29:0036.007N117.714W1.68 19 km (12 mi) ENE of Little Lake, CA
map0.82021/04/11 01:25:1035.919N117.682W10.88 20 km (13 mi) E of Little Lake, CA
map1.42021/04/11 01:09:4838.824N122.810W0.94 7 km ( 4 mi) NW of The Geysers, CA
map1.32021/04/11 00:58:2336.138N117.826W3.31 15 km ( 9 mi) NE of Coso Junction, CA
map0.72021/04/11 00:54:4537.439N118.883W3.63 24 km (15 mi) SSE of Mammoth Lakes, CA
map1.32021/04/11 00:50:1838.758N122.739W2.45 3 km ( 2 mi) SE of The Geysers, CA
map2.12021/04/11 00:49:3538.833N122.806W2.07 7 km ( 5 mi) W of Cobb, CA
map0.62021/04/11 00:48:3938.133N117.973W11.0 65 km (41 mi) W of Tonopah, NV
map0.42021/04/11 00:47:2937.557N118.868W5.38 13 km ( 8 mi) SE of Mammoth Lakes, CA
map0.72021/04/11 00:43:0435.676N117.462W6.08 11 km ( 7 mi) SSW of Searles Valley, CA
map1.22021/04/11 00:21:4635.621N117.604W7.99 6 km ( 4 mi) E of Ridgecrest, CA
map0.92021/04/10 23:50:1138.793N122.789W-0.77 3 km ( 2 mi) WNW of The Geysers, CA
map0.82021/04/10 23:49:5538.160N117.982W4.2 67 km (41 mi) W of Tonopah, NV
map1.02021/04/10 23:21:5435.629N117.460W5.96 16 km (10 mi) SSW of Searles Valley, CA
map0.22021/04/10 23:20:3033.573N116.713W2.12 4 km ( 3 mi) WNW of Anza, CA
map0.52021/04/10 23:18:0633.572N116.716W2.62 4 km ( 3 mi) WNW of Anza, CA
map0.32021/04/10 23:17:0933.574N116.712W2.19 4 km ( 3 mi) WNW of Anza, CA
map0.12021/04/10 23:17:0233.575N116.713W2.08 4 km ( 3 mi) WNW of Anza, CA
map0.42021/04/10 23:16:0037.559N118.871W5.15 13 km ( 8 mi) SE of Mammoth Lakes, CA
map1.62021/04/10 23:13:0235.624N117.418W6.62 16 km (10 mi) SSW of Trona, CA
map0.42021/04/10 23:07:3333.617N116.863W15.6 15 km ( 9 mi) S of Valle Vista, CA
map0.72021/04/10 23:03:5033.530N116.454W7.09 20 km (12 mi) SW of La Quinta, CA
map1.12021/04/10 22:56:4137.566N118.865W5.56 13 km ( 8 mi) SE of Mammoth Lakes, CA
map1.42021/04/10 22:52:3138.819N122.765W1.6 4 km ( 2 mi) W of Cobb, CA
map1.32021/04/10 22:06:0835.986N117.308W1.58 25 km (16 mi) NNE of Trona, CA
map0.52021/04/10 21:43:3333.497N116.795W4.94 9 km ( 6 mi) NE of Aguanga, CA
map0.62021/04/10 21:37:5838.812N122.816W3.2 6 km ( 4 mi) NW of The Geysers, CA
map1.12021/04/10 21:32:5538.195N117.901W7.1 60 km (37 mi) WNW of Tonopah, NV
map1.42021/04/10 21:10:2437.891N118.557W5.68 47 km (29 mi) NE of Mammoth Lakes, CA
map0.82021/04/10 20:43:1338.162N117.963W9.3 65 km (40 mi) W of Tonopah, NV
map0.62021/04/10 20:29:4137.439N118.889W2.66 23 km (15 mi) SSE of Mammoth Lakes, CA
map0.52021/04/10 20:27:0038.824N122.763W2.11 3 km ( 2 mi) W of Cobb, CA
map1.12021/04/10 20:22:1538.182N117.879W11.1 58 km (36 mi) WNW of Tonopah, NV
map0.32021/04/10 20:13:5633.617N116.865W15.6 15 km ( 9 mi) S of Valle Vista, CA
map0.52021/04/10 20:13:2933.620N116.863W15.4 15 km ( 9 mi) S of Valle Vista, CA
map0.22021/04/10 20:00:1438.753N122.738W0.67 3 km ( 2 mi) SSE of The Geysers, CA
map0.72021/04/10 19:54:1838.805N122.739W1.84 2 km ( 1 mi) SW of Cobb, CA
map-0.22021/04/10 19:38:5536.713N116.208W1.7 53 km (33 mi) ESE of Beatty, NV
map0.92021/04/10 19:05:0638.786N122.751W-0.06 1 km ( 1 mi) NNE of The Geysers, CA
map1.62021/04/10 18:42:1838.170N117.868W8.9 57 km (35 mi) WNW of Tonopah, NV
map0.82021/04/10 18:39:5633.769N116.902W13.04 2 km ( 2 mi) NNW of Valle Vista, CA
map0.42021/04/10 18:34:5133.592N116.806W7.52 13 km ( 8 mi) WNW of Anza, CA
map1.22021/04/10 18:32:4133.065N115.591W9.48 4 km ( 3 mi) NE of Westmorland, CA
map0.52021/04/10 18:20:1133.498N116.791W4.48 9 km ( 6 mi) NE of Aguanga, CA
map1.02021/04/10 18:16:4735.645N117.542W10.29 12 km ( 8 mi) ENE of Ridgecrest, CA
map0.32021/04/10 18:12:1538.831N122.803W1.69 7 km ( 4 mi) W of Cobb, CA
map2.42021/04/10 18:09:3635.905N117.686W8.14 20 km (13 mi) E of Little Lake, CA
map0.72021/04/10 17:56:3133.860N116.819W14.26 7 km ( 4 mi) SSW of Cabazon, CA
map0.92021/04/10 17:34:1535.647N117.561W9.66 11 km ( 7 mi) ENE of Ridgecrest, CA
map1.12021/04/10 17:18:4833.688N116.792W14.69 9 km ( 6 mi) SW of Idyllwild, CA
map0.72021/04/10 17:15:5036.022N117.521W4.62 30 km (19 mi) NNW of Searles Valley, CA
map2.52021/04/10 16:57:2836.498N114.716W12.9 41 km (26 mi) NE of Nellis Air Force Base, NV
map1.42021/04/10 16:54:2434.040N116.822W9.7 14 km ( 9 mi) NNE of Banning, CA
map0.62021/04/10 16:40:2233.171N116.366W10.67 9 km ( 6 mi) S of Borrego Springs, CA
map1.52021/04/10 16:34:1435.673N117.522W8.71 15 km ( 9 mi) SW of Searles Valley, CA
map1.02021/04/10 15:52:2835.901N117.679W9.25 21 km (13 mi) E of Little Lake, CA
map0.82021/04/10 15:34:4838.138N117.888W14.2 58 km (36 mi) W of Tonopah, NV
map0.82021/04/10 15:33:3535.656N117.558W1.38 11 km ( 7 mi) ENE of Ridgecrest, CA
map0.42021/04/10 15:07:3733.482N116.796W5.52 8 km ( 5 mi) NE of Aguanga, CA
map0.52021/04/10 15:00:1638.832N122.810W2.24 8 km ( 5 mi) W of Cobb, CA
map1.02021/04/10 14:49:3638.808N122.738W2.06 2 km ( 1 mi) SW of Cobb, CA
map0.42021/04/10 14:46:2433.417N116.911W9.58 5 km ( 3 mi) WSW of Aguanga, CA
map0.52021/04/10 14:33:5438.834N122.744W0.72 2 km ( 1 mi) NW of Cobb, CA
map1.22021/04/10 14:29:0837.582N121.676W3.4 14 km ( 9 mi) SE of Livermore, CA
map2.12021/04/10 14:22:1535.695N121.686W16.47 57 km (35 mi) WNW of Cambria, CA
map1.02021/04/10 14:17:5733.300N116.253W9.86 12 km ( 8 mi) ENE of Borrego Springs, CA
map0.62021/04/10 14:04:3535.863N117.665W11.27 23 km (14 mi) ESE of Little Lake, CA
map0.52021/04/10 13:59:5133.596N116.800W7.38 13 km ( 8 mi) WNW of Anza, CA
map2.12021/04/10 13:39:5338.157N117.914W10.3 61 km (38 mi) W of Tonopah, NV
map1.02021/04/10 13:34:0937.404N118.603W9.57 14 km ( 9 mi) WNW of West Bishop, CA
map0.32021/04/10 13:11:2436.123N117.903W8.18 10 km ( 6 mi) NNE of Coso Junction, CA
map0.62021/04/10 12:47:2738.819N122.766W1.97 4 km ( 2 mi) W of Cobb, CA
map0.12021/04/10 12:40:4538.823N122.799W1.96 6 km ( 4 mi) NW of The Geysers, CA
map1.12021/04/10 12:36:2637.581N121.674W3.2 14 km ( 9 mi) SE of Livermore, CA
map0.92021/04/10 12:32:1433.285N116.225W1.56 14 km ( 9 mi) ENE of Borrego Springs, CA
map2.62021/04/10 12:08:0835.725N121.633W16.93 53 km (33 mi) WNW of Cambria, CA
map1.42021/04/10 12:04:5435.671N117.464W6.68 12 km ( 7 mi) SSW of Searles Valley, CA
map0.92021/04/10 11:50:3238.833N122.816W1.38 8 km ( 5 mi) NW of The Geysers, CA
map0.82021/04/10 11:50:0136.703N116.273W5.7 49 km (30 mi) ESE of Beatty, NV
map2.22021/04/10 11:37:2732.636N115.705W8.73 13 km ( 8 mi) WNW of Progreso, B.C., MX
map1.02021/04/10 11:25:2438.172N117.940W5.7 63 km (39 mi) W of Tonopah, NV
map0.92021/04/10 11:23:1535.658N117.436W9.03 12 km ( 8 mi) SSW of Searles Valley, CA
map2.02021/04/10 10:55:0937.553N118.904W5.3 11 km ( 7 mi) SE of Mammoth Lakes, CA
map1.12021/04/10 10:38:1037.982N118.363W3.6 65 km (40 mi) SSE of Hawthorne, NV
map1.12021/04/10 10:31:2836.655N117.243W18.7 10 km ( 6 mi) NW of Stovepipe Wells, CA
map1.62021/04/10 10:28:5337.446N114.624W20.1 21 km (13 mi) SSW of Caliente, NV
map0.32021/04/10 09:25:4435.774N117.583W7.07 16 km (10 mi) W of Searles Valley, CA
map0.92021/04/10 08:57:5333.288N116.221W1.29 15 km ( 9 mi) ENE of Borrego Springs, CA
map0.62021/04/10 08:56:5136.215N117.889W1.24 13 km ( 8 mi) SE of Olancha, CA
map0.82021/04/10 08:56:5035.911N117.746W8.93 15 km ( 9 mi) E of Little Lake, CA
map0.02021/04/10 08:56:3835.909N117.745W9.59 15 km ( 9 mi) ESE of Little Lake, CA
map1.52021/04/10 08:55:2132.914N115.528W5.25 7 km ( 4 mi) S of Brawley, CA
map1.02021/04/10 08:54:0634.065N117.218W10.93 3 km ( 2 mi) WNW of Redlands, CA
map0.42021/04/10 08:31:0633.119N116.643W10.91 6 km ( 4 mi) NW of Julian, CA
map1.42021/04/10 07:51:4835.907N117.689W7.17 20 km (12 mi) E of Little Lake, CA
map1.22021/04/10 07:49:5835.686N117.512W1.59 13 km ( 8 mi) SW of Searles Valley, CA
map0.12021/04/10 07:45:4838.804N122.818W2.98 6 km ( 4 mi) WNW of The Geysers, CA
map0.32021/04/10 07:42:1735.780N117.578W11 16 km (10 mi) W of Searles Valley, CA
map0.92021/04/10 07:41:4635.714N117.532W11.03 13 km ( 8 mi) WSW of Searles Valley, CA
map1.52021/04/10 07:26:3435.684N117.504W6.87 13 km ( 8 mi) SW of Searles Valley, CA
map1.02021/04/10 07:26:3035.686N117.502W4.63 13 km ( 8 mi) SW of Searles Valley, CA
map0.52021/04/10 07:15:4738.777N122.743W1.41 1 km ( 1 mi) E of The Geysers, CA
MAP3.32021/04/10 07:13:2138.523N122.585W9.14 6 km ( 4 mi) S of Calistoga, CA
map0.52021/04/10 07:11:2435.645N117.448W6.83 14 km ( 9 mi) SSW of Searles Valley, CA
map0.52021/04/10 07:11:2035.643N117.452W7.52 15 km ( 9 mi) SSW of Searles Valley, CA
map0.62021/04/10 07:03:4037.453N118.743W2.05 27 km (17 mi) WNW of West Bishop, CA
map1.72021/04/10 07:00:4433.273N115.662W3.33 11 km ( 7 mi) SE of Bombay Beach, CA
map0.92021/04/10 06:57:0837.599N118.794W4.72 17 km (10 mi) ESE of Mammoth Lakes, CA
MAP3.42021/04/10 06:22:0632.770N115.439W15.63 7 km ( 4 mi) SW of Holtville, CA
map1.42021/04/10 06:20:4939.345N123.242W6.52 9 km ( 6 mi) NNW of Redwood Valley, CA
map0.72021/04/10 06:20:4638.769N122.707W1.68 4 km ( 3 mi) ESE of The Geysers, CA
map0.62021/04/10 05:27:0038.805N122.780W2.2 4 km ( 2 mi) NNW of The Geysers, CA
map0.92021/04/10 05:21:2336.075N117.884W2.27 7 km ( 4 mi) ENE of Coso Junction, CA
map0.62021/04/10 05:20:5733.505N116.802W2.33 9 km ( 6 mi) NE of Aguanga, CA
map1.42021/04/10 04:54:1737.583N121.678W3.49 14 km ( 8 mi) SE of Livermore, CA
map2.92021/04/10 04:50:1437.582N121.675W3.95 14 km ( 9 mi) SE of Livermore, CA
map2.02021/04/10 04:43:0932.101N116.416W22.05 32 km (20 mi) NE of Ensenada, B.C., MX
map1.62021/04/10 04:11:3238.198N117.740W12.7 47 km (29 mi) WNW of Tonopah, NV
map1.22021/04/10 04:08:0938.199N117.744W12.1 47 km (29 mi) WNW of Tonopah, NV
map2.02021/04/10 04:01:5938.814N122.798W2.72 5 km ( 3 mi) NW of The Geysers, CA
map1.82021/04/10 03:54:1540.631N123.647W23.88 34 km (21 mi) S of Willow Creek, CA
map0.82021/04/10 03:43:2033.958N117.032W14.51 4 km ( 2 mi) SSE of Calimesa, CA
map1.62021/04/10 03:25:5833.285N115.653W3.66 10 km ( 6 mi) SE of Bombay Beach, CA
map1.02021/04/10 03:14:3635.770N117.567W8.73 15 km ( 9 mi) W of Searles Valley, CA
map0.22021/04/10 03:11:1733.642N116.706W11.05 10 km ( 6 mi) NNW of Anza, CA
map0.32021/04/10 03:08:2233.649N116.704W12.56 10 km ( 6 mi) S of Idyllwild, CA
map0.92021/04/10 03:04:5338.831N122.811W1.86 8 km ( 5 mi) NW of The Geysers, CA
map0.62021/04/10 02:35:1135.815N117.632W5.84 21 km (13 mi) WNW of Searles Valley, CA
map0.42021/04/10 02:29:0338.197N117.948W2.0 64 km (40 mi) WNW of Tonopah, NV
map1.22021/04/10 02:13:3534.161N117.471W11.2 7 km ( 4 mi) N of Fontana, CA
map0.12021/04/10 02:08:0636.930N116.289W0.0 41 km (26 mi) E of Beatty, NV
map2.12021/04/10 01:16:3240.182N121.054W5.08 10 km ( 6 mi) WNW of Greenville, CA
map0.92021/04/10 01:16:0137.363N121.727W6.32 8 km ( 5 mi) ESE of East Foothills, CA
map1.42021/04/10 01:15:5034.002N116.809W9.81 10 km ( 6 mi) NNW of Cabazon, CA
map1.02021/04/10 01:11:3735.617N117.474W7.13 18 km (11 mi) SSW of Searles Valley, CA
map1.82021/04/10 01:09:0638.160N117.843W10.0 54 km (34 mi) W of Tonopah, NV
map1.52021/04/10 00:46:4334.151N116.447W4.19 4 km ( 3 mi) NNW of Yucca Valley, CA
map0.32021/04/10 00:36:2833.226N116.739W11.52 3 km ( 2 mi) SE of Lake Henshaw, CA
map1.12021/04/10 00:32:1036.606N121.104W7.53 28 km (18 mi) NE of Soledad, CA
map0.52021/04/10 00:30:4435.877N117.713W4.12 19 km (12 mi) ESE of Little Lake, CA
map0.12021/04/10 00:18:4733.593N116.808W7.25 13 km ( 8 mi) WNW of Anza, CA
map0.82021/04/10 00:14:4337.339N118.758W13.14 27 km (17 mi) W of West Bishop, CA
map0.72021/04/10 00:09:4733.642N116.721W15.9 11 km ( 7 mi) NNW of Anza, CA
map0.62021/04/10 00:03:3738.814N122.796W1.96 5 km ( 3 mi) NW of The Geysers, CA
map0.82021/04/10 00:02:1334.136N117.454W6.68 4 km ( 3 mi) N of Fontana, CA
map0.92021/04/09 23:56:0738.182N118.094W1.1 60 km (37 mi) SE of Hawthorne, NV
map0.72021/04/09 23:47:5635.784N117.748W7.52 16 km (10 mi) NNE of Inyokern, CA
map0.52021/04/09 23:30:1137.606N118.817W3.21 15 km ( 9 mi) ESE of Mammoth Lakes, CA
map0.62021/04/09 23:16:0433.942N116.934W17.29 4 km ( 3 mi) ENE of Beaumont, CA
map1.82021/04/09 23:06:0537.698N119.435W17.08 13 km ( 8 mi) ESE of Yosemite Valley, CA
map1.62021/04/09 23:04:4838.160N117.889W10.0 59 km (36 mi) W of Tonopah, NV
map1.42021/04/09 22:40:3333.651N116.725W13.82 10 km ( 6 mi) S of Idyllwild, CA
map1.02021/04/09 22:38:3238.402N118.902W8.2 28 km (17 mi) WSW of Hawthorne, NV
map0.92021/04/09 22:38:0033.671N116.718W13.29 8 km ( 5 mi) S of Idyllwild, CA
map0.22021/04/09 22:37:1033.705N116.742W16.57 4 km ( 3 mi) SSW of Idyllwild, CA
map0.62021/04/09 22:35:5333.655N116.714W13.06 9 km ( 6 mi) S of Idyllwild, CA
map1.12021/04/09 22:31:1432.748N115.824W8.76 16 km (10 mi) E of Ocotillo, CA
map0.62021/04/09 22:29:0535.919N117.724W9.14 17 km (10 mi) E of Little Lake, CA
map2.02021/04/09 22:16:0938.792N122.808W2.41 5 km ( 3 mi) WNW of The Geysers, CA
map0.92021/04/09 22:09:1335.623N117.471W5.38 17 km (11 mi) SSW of Searles Valley, CA
map1.02021/04/09 22:08:3433.654N116.719W13.92 10 km ( 6 mi) S of Idyllwild, CA
map0.52021/04/09 22:00:2833.946N116.986W16.26 2 km ( 1 mi) NNW of Beaumont, CA
map0.72021/04/09 21:58:4235.903N117.683W8.02 21 km (13 mi) E of Little Lake, CA
map0.72021/04/09 21:30:3533.706N116.718W17.98 4 km ( 2 mi) S of Idyllwild, CA
map0.82021/04/09 21:05:2335.886N117.719W4.17 18 km (11 mi) ESE of Little Lake, CA
map2.02021/04/09 21:02:0336.341N120.918W10.8 24 km (15 mi) NE of King City, CA
MAP3.02021/04/09 20:57:5834.148N116.445W5.88 4 km ( 2 mi) NNW of Yucca Valley, CA
map1.02021/04/09 20:45:0736.131N117.840W3.01 14 km ( 8 mi) NE of Coso Junction, CA
map0.92021/04/09 20:35:2838.136N118.041W0.0 67 km (41 mi) SE of Hawthorne, NV
map0.62021/04/09 20:33:1238.062N118.083W0.7 70 km (43 mi) SE of Hawthorne, NV
map0.92021/04/09 20:12:4238.827N122.814W2 7 km ( 5 mi) NW of The Geysers, CA
map1.82021/04/09 20:12:2538.176N117.883W14.0 58 km (36 mi) WNW of Tonopah, NV
map1.52021/04/09 20:09:0732.634N115.717W6.02 14 km ( 9 mi) WNW of Progreso, B.C., MX
map0.02021/04/09 19:59:1635.902N117.655W4.56 23 km (14 mi) E of Little Lake, CA
map0.82021/04/09 19:47:2035.901N117.704W10.48 19 km (12 mi) ESE of Little Lake, CA
map0.92021/04/09 19:31:2034.039N117.251W17.03 1 km ( 1 mi) SE of Loma Linda, CA
map1.22021/04/09 19:27:1634.276N117.181W7.78 3 km ( 2 mi) NNE of Lake Arrowhead, CA
map0.82021/04/09 19:21:3533.706N116.808W16.02 9 km ( 6 mi) WSW of Idyllwild, CA
map1.12021/04/09 17:14:2132.742N115.807W11.45 17 km (11 mi) E of Ocotillo, CA
map1.22021/04/09 16:58:5935.566N118.431W2.79 6 km ( 4 mi) ESE of Bodfish, CA
map1.22021/04/09 16:58:3435.568N118.427W2.99 6 km ( 4 mi) ESE of Bodfish, CA
map0.92021/04/09 16:44:4638.824N122.790W1.44 6 km ( 4 mi) W of Cobb, CA
map1.22021/04/09 16:32:0932.741N115.823W8.03 16 km (10 mi) E of Ocotillo, CA
map2.32021/04/09 16:12:2140.321N123.217W37.85 26 km (16 mi) S of Hayfork, CA
map0.72021/04/09 16:04:1732.979N116.216W11.09 20 km (12 mi) SSW of Ocotillo Wells, CA
map0.42021/04/09 16:01:2533.517N116.477W6.43 19 km (12 mi) ESE of Anza, CA
map1.12021/04/09 15:59:5838.152N117.906W10.3 60 km (37 mi) W of Tonopah, NV
map2.22021/04/09 15:54:4935.895N117.714W5.07 18 km (11 mi) ESE of Little Lake, CA
map0.72021/04/09 15:51:0533.709N116.825W17.14 8 km ( 5 mi) SE of Valle Vista, CA
map0.42021/04/09 15:47:0138.808N122.791W3.25 5 km ( 3 mi) NW of The Geysers, CA
map1.72021/04/09 15:45:5035.895N117.709W4.14 18 km (11 mi) ESE of Little Lake, CA
map1.32021/04/09 15:42:4538.153N117.972W5.5 66 km (41 mi) W of Tonopah, NV
map1.52021/04/09 15:01:3437.692N119.432W5.34 14 km ( 9 mi) ESE of Yosemite Valley, CA
map0.82021/04/09 14:52:5438.161N118.099W4.2 61 km (38 mi) SE of Hawthorne, NV
map1.32021/04/09 14:52:4033.705N116.719W16.53 4 km ( 2 mi) S of Idyllwild, CA
map1.32021/04/09 14:21:5938.183N117.741W11.1 46 km (29 mi) WNW of Tonopah, NV
map0.32021/04/09 13:51:0333.593N116.796W7.54 12 km ( 7 mi) WNW of Anza, CA
map0.72021/04/09 13:43:5035.588N117.531W9.1 14 km ( 8 mi) ESE of Ridgecrest, CA
map2.32021/04/09 13:29:5333.116N115.626W8.92 9 km ( 5 mi) N of Westmorland, CA
map1.12021/04/09 13:27:2638.157N117.842W9.5 54 km (34 mi) W of Tonopah, NV
map1.72021/04/09 13:24:1733.893N118.657W13.07 16 km (10 mi) S of Malibu Beach, CA
map1.92021/04/09 13:19:4632.078N116.316W5.52 37 km (23 mi) NE of Ensenada, B.C., MX
map0.62021/04/09 13:15:2933.702N116.802W14.64 9 km ( 5 mi) WSW of Idyllwild, CA
map0.62021/04/09 12:44:3938.828N122.804W1.81 7 km ( 4 mi) NW of The Geysers, CA
map0.82021/04/09 12:10:0938.796N122.752W2.26 2 km ( 1 mi) N of The Geysers, CA
map0.52021/04/09 12:08:5733.580N116.809W5.17 13 km ( 8 mi) WNW of Anza, CA
map1.52021/04/09 11:51:3735.011N118.132W-1.03 3 km ( 2 mi) E of Quarry at TPO-DBM (Probable quarry explosion)
map0.52021/04/09 11:32:0138.778N122.739W1.12 2 km ( 1 mi) E of The Geysers, CA
map1.72021/04/09 11:26:2936.748N121.598W1.82 7 km ( 4 mi) ESE of Prunedale, CA
map1.52021/04/09 11:26:1936.155N118.073W1.57 15 km (10 mi) SSW of Olancha, CA
map1.22021/04/09 11:22:4835.060N118.335W-0.97 2 km ( 1 mi) NW of Quarry at MOJAVE (Probable quarry explosion)
map1.12021/04/09 11:18:2134.149N117.450W13.32 6 km ( 4 mi) N of Fontana, CA
map1.32021/04/09 11:17:3738.157N118.096W3.9 62 km (38 mi) SE of Hawthorne, NV
map1.82021/04/09 10:52:0533.507N116.459W4.78 21 km (13 mi) ESE of Anza, CA
map0.42021/04/09 10:49:4135.432N117.730W7.13 11 km ( 7 mi) NW of Johannesburg, CA
map0.92021/04/09 10:49:1935.970N117.454W8.63 23 km (14 mi) N of Searles Valley, CA
map1.02021/04/09 10:49:0035.905N117.685W8.53 20 km (13 mi) E of Little Lake, CA
map1.22021/04/09 10:38:1333.508N116.453W6.03 21 km (13 mi) ESE of Anza, CA
map0.82021/04/09 10:33:0238.836N122.809W1.98 8 km ( 5 mi) WNW of Cobb, CA
map1.12021/04/09 10:25:5934.141N117.442W5.84 5 km ( 3 mi) NNE of Fontana, CA
map0.82021/04/09 10:20:5338.149N117.978W11.3 66 km (41 mi) W of Tonopah, NV
map0.62021/04/09 10:08:5338.814N122.808W3.28 6 km ( 4 mi) NW of The Geysers, CA
map1.92021/04/09 10:02:5337.459N118.845W3.69 23 km (14 mi) SSE of Mammoth Lakes, CA
map0.62021/04/09 09:55:0235.906N117.653W4.82 23 km (14 mi) E of Little Lake, CA
map0.92021/04/09 09:37:4836.439N121.010W7.22 25 km (15 mi) ENE of Greenfield, CA
map1.12021/04/09 09:36:4735.665N117.486W4.75 14 km ( 8 mi) SSW of Searles Valley, CA
map1.52021/04/09 09:26:1038.828N122.804W1.81 7 km ( 4 mi) NW of The Geysers, CA
map0.42021/04/09 09:24:2137.469N118.856W3.21 22 km (13 mi) SSE of Mammoth Lakes, CA
map0.52021/04/09 09:02:3836.019N117.777W1.52 15 km ( 9 mi) NE of Little Lake, CA
map0.42021/04/09 08:59:4236.020N117.777W1.77 15 km ( 9 mi) NE of Little Lake, CA
map0.62021/04/09 08:48:0738.807N122.822W2.17 7 km ( 4 mi) WNW of The Geysers, CA
map0.52021/04/09 08:47:5438.806N122.822W2.31 7 km ( 4 mi) WNW of The Geysers, CA
map0.82021/04/09 08:35:0338.171N118.072W10.3 62 km (39 mi) SE of Hawthorne, NV
map0.22021/04/09 08:31:5033.573N116.713W2.34 4 km ( 3 mi) WNW of Anza, CA
map1.22021/04/09 08:20:4536.204N117.896W2.14 13 km ( 8 mi) SE of Olancha, CA
map1.02021/04/09 07:18:2838.166N117.887W4.0 58 km (36 mi) W of Tonopah, NV
map1.82021/04/09 07:16:0738.149N117.894W9.2 59 km (36 mi) W of Tonopah, NV
map1.22021/04/09 06:58:4033.283N116.225W1.86 14 km ( 9 mi) ENE of Borrego Springs, CA
map0.62021/04/09 06:23:4334.729N116.240W5.94 7 km ( 5 mi) W of Ludlow, CA
map0.32021/04/09 06:21:1438.762N122.737W1.42 2 km ( 1 mi) SE of The Geysers, CA
map1.52021/04/09 06:20:0633.277N116.228W2.52 14 km ( 9 mi) E of Borrego Springs, CA
map2.02021/04/09 06:08:5040.853N121.890W12.5 20 km (12 mi) W of Burney, CA
map0.62021/04/09 05:58:5138.807N122.822W2.06 7 km ( 4 mi) WNW of The Geysers, CA
map1.12021/04/09 05:43:3332.924N116.238W10.6 26 km (16 mi) SSW of Ocotillo Wells, CA
map0.62021/04/09 05:30:5038.825N122.856W2.08 10 km ( 6 mi) WNW of The Geysers, CA
map0.52021/04/09 05:14:2138.841N122.877W2.44 13 km ( 8 mi) NW of The Geysers, CA
map1.02021/04/09 05:13:0636.667N116.258W7.7 52 km (32 mi) ESE of Beatty, NV
map0.62021/04/09 04:53:4138.808N122.815W3.36 6 km ( 4 mi) WNW of The Geysers, CA
map0.32021/04/09 04:36:0938.788N122.758W0.96 1 km ( 1 mi) N of The Geysers, CA
map1.22021/04/09 04:25:2236.086N117.647W1.99 27 km (17 mi) E of Coso Junction, CA
map0.72021/04/09 04:19:3735.972N117.675W2.51 21 km (13 mi) E of Little Lake, CA
map1.22021/04/09 04:02:1538.163N117.900W10.9 59 km (37 mi) W of Tonopah, NV
map-0.22021/04/09 04:01:1839.336N120.019W5.1 10 km ( 6 mi) NNW of Incline Village, NV
map0.92021/04/09 03:56:2935.779N117.585W8.73 16 km (10 mi) W of Searles Valley, CA
map0.92021/04/09 03:54:5438.807N122.815W3.36 6 km ( 4 mi) WNW of The Geysers, CA
map0.62021/04/09 03:35:4734.012N117.181W13.46 5 km ( 3 mi) S of Redlands, CA
map1.92021/04/09 03:30:2940.312N123.585W3.79 29 km (18 mi) NE of Redway, CA
map0.42021/04/09 03:14:4738.804N122.783W1.26 4 km ( 2 mi) NW of The Geysers, CA
map2.12021/04/09 03:10:5640.414N124.420W18.64 22 km (14 mi) SW of Ferndale, CA
map0.82021/04/09 02:42:1136.649N116.272W7.6 52 km (32 mi) SE of Beatty, NV
map0.82021/04/09 02:39:4836.651N116.272W7.3 52 km (32 mi) SE of Beatty, NV
map1.22021/04/09 02:29:3638.165N117.898W10.8 59 km (37 mi) W of Tonopah, NV
map0.72021/04/09 02:24:2433.911N117.675W11.74 11 km ( 7 mi) WNW of Corona, CA
map0.92021/04/09 02:22:5438.819N122.764W1.44 4 km ( 2 mi) W of Cobb, CA
map0.62021/04/09 01:56:2040.080N119.655W13.4 48 km (30 mi) N of Spanish Springs, NV
map1.12021/04/09 01:49:4537.479N118.809W12.87 23 km (14 mi) SE of Mammoth Lakes, CA
map2.12021/04/09 01:47:0532.745N115.826W9.02 16 km (10 mi) E of Ocotillo, CA
map0.52021/04/09 01:25:3536.643N116.277W6.6 52 km (32 mi) SE of Beatty, NV
map0.92021/04/09 00:51:4338.158N117.915W11.1 61 km (38 mi) W of Tonopah, NV
map2.02021/04/09 00:45:2738.140N118.008W10.5 69 km (43 mi) W of Tonopah, NV
map1.62021/04/09 00:16:3338.175N118.066W10.4 62 km (39 mi) SE of Hawthorne, NV
map0.72021/04/09 00:07:2635.794N117.609W7.72 19 km (12 mi) W of Searles Valley, CA
map1.32021/04/09 00:03:3538.172N117.894W10.2 59 km (37 mi) W of Tonopah, NV
map0.82021/04/08 23:50:5038.791N122.746W1.06 2 km ( 1 mi) NNE of The Geysers, CA
map0.92021/04/08 23:31:1235.641N117.449W7.97 15 km ( 9 mi) SSW of Searles Valley, CA
map0.92021/04/08 23:30:2335.618N117.470W9.02 18 km (11 mi) SSW of Searles Valley, CA
MAP3.42021/04/08 22:19:5041.325N116.172W12.0 64 km (40 mi) NNW of Elko, NV
map0.82021/04/08 22:06:2538.837N122.829W2.28 9 km ( 6 mi) NW of The Geysers, CA
map1.32021/04/08 22:06:0038.836N122.829W2.2 9 km ( 6 mi) NW of The Geysers, CA
map1.12021/04/08 21:55:0232.792N115.477W9.14 8 km ( 5 mi) E of El Centro, CA
map1.52021/04/08 21:54:5032.800N115.451W9.76 7 km ( 4 mi) W of Holtville, CA
map0.52021/04/08 21:47:4838.756N122.729W2.01 3 km ( 2 mi) SE of The Geysers, CA
map1.92021/04/08 21:43:0440.935N122.371W15.18 28 km (18 mi) N of Shasta Lake, CA
map1.22021/04/08 21:39:3838.168N117.891W11.3 59 km (37 mi) W of Tonopah, NV
map0.52021/04/08 21:33:0033.928N117.161W13.62 6 km ( 4 mi) E of Moreno Valley, CA
map1.82021/04/08 21:30:5732.801N115.453W11.96 7 km ( 4 mi) W of Holtville, CA
map0.42021/04/08 21:00:3938.803N122.781W3.39 4 km ( 2 mi) NW of The Geysers, CA
map2.82021/04/08 20:57:5832.780N115.433W11.58 6 km ( 4 mi) SW of Holtville, CA
map2.92021/04/08 20:57:1332.782N115.438W12.58 6 km ( 4 mi) WSW of Holtville, CA
map1.62021/04/08 20:53:0438.143N117.887W10.7 58 km (36 mi) W of Tonopah, NV
map0.82021/04/08 20:46:1838.804N122.792W1.38 4 km ( 3 mi) NW of The Geysers, CA
map1.22021/04/08 20:44:0134.181N116.800W5.85 10 km ( 6 mi) SSE of Big Bear City, CA
map1.42021/04/08 20:43:0134.572N117.445W9.9 3 km ( 2 mi) WSW of Adelanto, CA
map2.82021/04/08 20:31:4632.776N115.436W13.84 6 km ( 4 mi) SW of Holtville, CA
map1.52021/04/08 20:15:4138.166N118.082W3.3 62 km (38 mi) SE of Hawthorne, NV
map1.32021/04/08 20:08:5138.147N117.970W11.6 65 km (41 mi) W of Tonopah, NV
map1.62021/04/08 19:48:3635.811N117.642W8 21 km (13 mi) N of Ridgecrest, CA
map0.62021/04/08 19:46:2038.828N122.804W1.8 7 km ( 4 mi) NW of The Geysers, CA
map0.72021/04/08 19:43:4538.808N122.737W1.9 2 km ( 1 mi) SW of Cobb, CA
map1.52021/04/08 19:42:3039.549N123.391W6.7 12 km ( 7 mi) N of Brooktrails, CA
map1.62021/04/08 19:38:1838.807N122.738W1.85 2 km ( 1 mi) SW of Cobb, CA
map1.52021/04/08 19:10:0138.159N118.227W6.9 53 km (33 mi) SE of Hawthorne, NV
map2.92021/04/08 19:07:0140.295N124.579W12.54 41 km (26 mi) SW of Ferndale, CA
map1.62021/04/08 18:26:2532.760N115.426W7.02 7 km ( 4 mi) SW of Holtville, CA
map1.82021/04/08 18:26:1132.773N115.436W11.26 7 km ( 4 mi) SW of Holtville, CA
map0.92021/04/08 18:21:4138.822N122.810W2.85 7 km ( 4 mi) NW of The Geysers, CA
map1.42021/04/08 18:12:3434.298N118.448W9.43 1 km ( 1 mi) S of Sylmar, CA
map1.02021/04/08 17:52:3833.905N116.330W5.19 11 km ( 7 mi) NNE of Thousand Palms, CA
map-0.32021/04/08 17:52:1135.895N117.698W-0.49 19 km (12 mi) ESE of Little Lake, CA
map0.72021/04/08 17:49:0435.666N117.478W6.37 13 km ( 8 mi) SSW of Searles Valley, CA
map0.42021/04/08 17:40:3338.786N122.770W1.44 2 km ( 1 mi) NW of The Geysers, CA
map0.32021/04/08 17:40:3135.874N117.684W4.92 21 km (13 mi) ESE of Little Lake, CA
map2.52021/04/08 17:39:3140.236N124.161W12.39 30 km (18 mi) S of Rio Dell, CA
MAP3.12021/04/08 17:33:4733.932N116.787W14.76 2 km ( 1 mi) N of Cabazon, CA
map1.32021/04/08 17:33:3735.236N118.512W7.9 13 km ( 8 mi) NNW of Tehachapi, CA
map1.02021/04/08 17:26:5938.791N122.747W0.87 2 km ( 1 mi) NNE of The Geysers, CA
map1.82021/04/08 17:14:2936.497N121.075W4.37 24 km (15 mi) ENE of Soledad, CA
map0.92021/04/08 17:02:0533.999N116.806W11.31 9 km ( 6 mi) N of Cabazon, CA
map0.52021/04/08 16:36:0233.681N116.764W9.15 8 km ( 5 mi) SSW of Idyllwild, CA
map1.02021/04/08 16:01:0533.508N116.543W13.24 13 km ( 8 mi) ESE of Anza, CA
map0.42021/04/08 15:44:1638.824N122.855W2.06 10 km ( 6 mi) WNW of The Geysers, CA
map0.62021/04/08 15:06:3239.210N120.068W10.1 4 km ( 2 mi) SSW of Tahoe Vista, CA
map1.42021/04/08 14:55:1340.281N119.603W4.9 71 km (44 mi) N of Spanish Springs, NV
map1.22021/04/08 14:53:0038.094N122.840W12.36 2 km ( 1 mi) ESE of Inverness, CA
map0.52021/04/08 14:47:0135.622N117.593W7.22 8 km ( 5 mi) E of Ridgecrest, CA
map2.52021/04/08 14:40:5340.382N124.478W28.46 28 km (18 mi) SW of Ferndale, CA
map1.72021/04/08 14:32:5438.172N117.991W2.0 67 km (42 mi) W of Tonopah, NV
map0.32021/04/08 13:59:4037.636N118.933W4.32 4 km ( 2 mi) E of Mammoth Lakes, CA
map1.12021/04/08 13:58:2735.647N117.502W12.71 16 km (10 mi) E of Ridgecrest, CA
map0.22021/04/08 13:57:0237.638N118.933W4.44 4 km ( 2 mi) E of Mammoth Lakes, CA
MAP3.62021/04/08 13:51:1535.654N117.550W8.34 12 km ( 7 mi) ENE of Ridgecrest, CA
map1.02021/04/08 13:43:0333.906N117.196W12.76 4 km ( 2 mi) SE of Moreno Valley, CA
map0.92021/04/08 13:41:4139.381N119.719W1.4 17 km (11 mi) S of Sparks, NV
map0.92021/04/08 13:36:1038.806N122.794W3.09 5 km ( 3 mi) NW of The Geysers, CA
map2.32021/04/08 13:33:1738.806N122.797W3.4 5 km ( 3 mi) NW of The Geysers, CA
map1.52021/04/08 13:05:5433.971N116.827W8.17 7 km ( 4 mi) NE of Banning, CA
map1.72021/04/08 12:36:3239.232N123.206W4.98 4 km ( 2 mi) S of Redwood Valley, CA
map1.02021/04/08 12:11:1638.163N117.901W10.4 60 km (37 mi) W of Tonopah, NV
map0.92021/04/08 12:07:2833.352N117.148W-0.42 6 km ( 4 mi) N of Quarry at PALA-HWY (Probable quarry explosion)
map1.02021/04/08 12:00:3332.764N116.900W4.59 3 km ( 2 mi) E of Quarry at SYS-CPE (Probable quarry explosion)
map0.42021/04/08 11:47:1337.594N118.794W4.25 17 km (11 mi) ESE of Mammoth Lakes, CA
map1.92021/04/08 11:45:1634.048N119.010W7.21 19 km (12 mi) S of Camarillo, CA
map1.62021/04/08 11:38:3237.983N122.456W-0.02 34 km (21 mi) NW of Quarry near San Leandro, CA(Probable quarry explosion)
map0.82021/04/08 11:36:5138.795N122.790W0.04 4 km ( 2 mi) NW of The Geysers, CA
map0.52021/04/08 11:30:1538.810N122.738W2.23 2 km ( 1 mi) SW of Cobb, CA
map0.82021/04/08 11:24:0235.872N117.675W4.54 22 km (14 mi) ESE of Little Lake, CA
map1.12021/04/08 11:19:2133.999N116.790W9.37 9 km ( 6 mi) N of Cabazon, CA
map1.72021/04/08 11:13:4338.160N117.898W10.6 59 km (37 mi) W of Tonopah, NV
map1.42021/04/08 11:13:1533.076N115.018W-0.41 2 km ( 1 mi) NW of Quarry at RUN (Probable quarry explosion)
map1.32021/04/08 11:03:0535.588N117.387W4.21 20 km (12 mi) S of Trona, CA
map0.62021/04/08 10:48:2533.508N116.496W12.95 17 km (11 mi) ESE of Anza, CA
map1.12021/04/08 10:37:4333.057N116.564W10.46 4 km ( 3 mi) SE of Julian, CA
map0.92021/04/08 10:23:5335.620N117.410W8.79 16 km (10 mi) S of Trona, CA
map0.72021/04/08 10:03:5133.498N116.787W4.33 9 km ( 6 mi) NE of Aguanga, CA
map2.12021/04/08 09:59:2838.165N117.942W4.7 63 km (39 mi) W of Tonopah, NV
map0.82021/04/08 09:48:4635.964N117.463W4.94 22 km (14 mi) NNW of Searles Valley, CA
map0.42021/04/08 09:48:3735.959N117.457W2.53 22 km (14 mi) NNW of Searles Valley, CA
map0.82021/04/08 09:48:1235.965N117.461W5.34 23 km (14 mi) NNW of Searles Valley, CA
map1.02021/04/08 09:46:4533.283N116.163W10.33 16 km (10 mi) N of Ocotillo Wells, CA
map0.92021/04/08 09:35:0235.795N117.623W6.41 20 km (12 mi) NNE of Ridgecrest, CA
map1.52021/04/08 09:32:4735.638N117.461W6.75 15 km (10 mi) SSW of Searles Valley, CA
map2.62021/04/08 09:20:3036.788N117.433W0.83 33 km (20 mi) NW of Stovepipe Wells, CA
map0.92021/04/08 09:00:4936.072N117.851W4.25 9 km ( 6 mi) ENE of Coso Junction, CA
map1.72021/04/08 08:54:0537.261N119.825W17.91 9 km ( 6 mi) NNW of Yosemite Lakes, CA
map1.82021/04/08 08:38:4838.179N117.845W9.7 55 km (34 mi) WNW of Tonopah, NV
map1.92021/04/08 08:23:0938.169N117.943W4.4 63 km (39 mi) W of Tonopah, NV
map0.82021/04/08 08:09:4338.832N122.817W1.39 8 km ( 5 mi) NW of The Geysers, CA
map1.42021/04/08 08:08:5138.168N117.943W4.5 63 km (39 mi) W of Tonopah, NV
map1.02021/04/08 08:06:1038.182N117.794W9.7 51 km (32 mi) WNW of Tonopah, NV
map1.22021/04/08 07:59:3238.168N117.942W4.1 63 km (39 mi) W of Tonopah, NV
map1.52021/04/08 07:32:2335.788N117.620W10.25 19 km (12 mi) NNE of Ridgecrest, CA
map0.52021/04/08 07:32:1935.788N117.610W11.04 19 km (12 mi) W of Searles Valley, CA
map0.32021/04/08 07:22:1639.344N120.008W4.5 11 km ( 7 mi) NNW of Incline Village, NV
map1.82021/04/08 07:18:2636.082N117.648W2.02 27 km (17 mi) E of Coso Junction, CA
map2.52021/04/08 07:07:4138.165N117.839W9.2 54 km (34 mi) WNW of Tonopah, NV
map0.12021/04/08 07:01:5433.511N116.499W14.41 17 km (11 mi) ESE of Anza, CA
map1.12021/04/08 06:49:0235.882N117.710W5.26 19 km (12 mi) ESE of Little Lake, CA
map1.62021/04/08 06:48:2735.663N117.471W6.38 13 km ( 8 mi) SSW of Searles Valley, CA
map1.02021/04/08 06:37:5632.182N116.031W9.81 61 km (38 mi) SW of Progreso, B.C., MX
map0.82021/04/08 06:33:1238.829N122.812W1.81 8 km ( 5 mi) NW of The Geysers, CA
map-0.32021/04/08 06:32:2239.222N119.556W8.7 4 km ( 2 mi) ESE of Dayton, NV
map1.82021/04/08 06:24:5738.148N118.094W7.0 62 km (39 mi) SE of Hawthorne, NV
map0.52021/04/08 06:13:4533.459N116.590W7.05 13 km ( 8 mi) SE of Anza, CA
map1.52021/04/08 06:08:1538.205N117.757W8.5 48 km (30 mi) WNW of Tonopah, NV
map0.32021/04/08 06:04:4439.201N119.646W7.0 6 km ( 4 mi) SW of Dayton, NV
map0.62021/04/08 05:58:2839.213N119.631W11.0 4 km ( 3 mi) SW of Dayton, NV
map1.32021/04/08 05:10:2837.923N118.584W15.3 47 km (29 mi) NE of Mammoth Lakes, CA
map1.22021/04/08 05:08:2433.053N116.374W13.46 21 km (13 mi) E of Julian, CA
map1.12021/04/08 05:02:1237.557N118.874W5.63 13 km ( 8 mi) SE of Mammoth Lakes, CA
map1.02021/04/08 04:45:0434.166N117.353W4.47 1 km ( 1 mi) NNW of Muscoy, CA
map0.72021/04/08 04:38:2233.831N116.987W10.98 6 km ( 4 mi) NNW of San Jacinto, CA
map1.62021/04/08 04:30:1933.827N116.992W12.45 6 km ( 4 mi) NNW of San Jacinto, CA
map1.22021/04/08 04:26:4433.828N117.031W14.13 8 km ( 5 mi) NW of San Jacinto, CA
map0.62021/04/08 04:19:4438.787N122.769W1.66 2 km ( 1 mi) NW of The Geysers, CA
map2.82021/04/08 04:19:3833.824N116.995W12.41 6 km ( 3 mi) NW of San Jacinto, CA
map1.92021/04/08 04:14:3532.787N115.445W13.51 7 km ( 4 mi) WSW of Holtville, CA
map1.92021/04/08 04:05:0932.777N115.438W10.93 7 km ( 4 mi) SW of Holtville, CA
map2.32021/04/08 03:49:3432.770N115.431W11.34 7 km ( 4 mi) SW of Holtville, CA
map2.32021/04/08 03:49:2032.773N115.436W14.98 7 km ( 4 mi) SW of Holtville, CA
map1.72021/04/08 03:49:0732.785N115.440W8.92 6 km ( 4 mi) WSW of Holtville, CA
map1.12021/04/08 03:46:0936.249N117.858W2.41 14 km ( 9 mi) ESE of Olancha, CA
map0.22021/04/08 02:53:3938.780N122.756W1 0 km ( 0 mi) N of The Geysers, CA
map0.52021/04/08 02:29:1335.654N117.436W7.98 13 km ( 8 mi) SSW of Searles Valley, CA
map0.22021/04/08 02:29:1235.891N117.718W5.64 18 km (11 mi) ESE of Little Lake, CA
map1.12021/04/08 02:29:0638.780N122.755W0.62 0 km ( 0 mi) NNE of The Geysers, CA
map1.92021/04/08 02:27:0334.730N120.489W5.03 3 km ( 2 mi) NW of Vandenberg Village, CA
map0.52021/04/08 02:25:2338.779N122.756W0.76 0 km ( 0 mi) N of The Geysers, CA
map1.12021/04/08 02:11:0834.163N117.348W4.89 1 km ( 1 mi) NNW of Muscoy, CA
map1.02021/04/08 01:52:5637.622N122.494W7.68 1 km ( 1 mi) NW of Pacifica, CA
map0.72021/04/08 01:42:2236.207N117.884W2.43 14 km ( 8 mi) SE of Olancha, CA
map1.22021/04/08 01:31:1735.631N117.438W2.77 15 km (10 mi) S of Searles Valley, CA
map0.52021/04/08 01:08:1135.846N117.656W4.8 24 km (15 mi) WNW of Searles Valley, CA
map0.42021/04/08 01:08:0935.778N117.583W7.94 16 km (10 mi) W of Searles Valley, CA
map0.82021/04/08 00:32:1733.899N116.678W13.96 10 km ( 6 mi) ESE of Cabazon, CA
map1.62021/04/08 00:28:2432.778N115.443W11.22 7 km ( 4 mi) WSW of Holtville, CA
map0.92021/04/08 00:26:4436.105N117.853W4.6 11 km ( 7 mi) NE of Coso Junction, CA
map0.62021/04/08 00:04:2636.089N117.650W6.43 27 km (17 mi) E of Coso Junction, CA
map1.02021/04/07 23:45:5437.586N121.705W2.9 12 km ( 7 mi) SSE of Livermore, CA
map0.52021/04/07 23:44:0638.797N122.812W3.52 5 km ( 3 mi) WNW of The Geysers, CA
map1.32021/04/07 23:40:5138.181N117.889W10.3 59 km (37 mi) WNW of Tonopah, NV
map2.82021/04/07 23:38:5738.169N117.939W4.9 63 km (39 mi) W of Tonopah, NV
map1.82021/04/07 23:07:1433.437N116.441W6.49 21 km (13 mi) NNW of Borrego Springs, CA
map1.52021/04/07 23:02:2632.803N115.457W9.33 7 km ( 4 mi) W of Holtville, CA
map2.02021/04/07 22:48:2634.169N117.347W6.13 2 km ( 1 mi) N of Muscoy, CA
map2.12021/04/07 22:48:1034.167N117.345W5.79 1 km ( 1 mi) N of Muscoy, CA
map0.92021/04/07 22:47:4238.836N122.776W1.68 5 km ( 3 mi) WNW of Cobb, CA
map1.02021/04/07 22:30:3733.831N116.990W12.93 6 km ( 4 mi) NNW of San Jacinto, CA
map0.72021/04/07 22:27:3133.331N116.218W9.8 17 km (10 mi) ENE of Borrego Springs, CA
map2.12021/04/07 21:12:5432.796N115.450W12.58 7 km ( 4 mi) WSW of Holtville, CA
map0.32021/04/07 21:12:2238.780N122.755W0.89 0 km ( 0 mi) NNE of The Geysers, CA
map0.82021/04/07 21:00:4434.004N116.992W11.85 6 km ( 4 mi) SE of Yucaipa, CA
map-0.12021/04/07 20:59:3838.835N122.820W1.73 8 km ( 5 mi) NW of The Geysers, CA
map1.82021/04/07 20:59:2332.795N115.439W9.49 6 km ( 4 mi) WSW of Holtville, CA
map1.82021/04/07 20:59:2332.783N115.436W11.08 6 km ( 4 mi) WSW of Holtville, CA
map2.72021/04/07 20:57:4732.775N115.437W15.82 7 km ( 4 mi) SW of Holtville, CA
MAP3.72021/04/07 20:52:0832.775N115.433W16.19 6 km ( 4 mi) SW of Holtville, CA
map1.12021/04/07 20:48:2438.817N122.804W3.14 6 km ( 4 mi) NW of The Geysers, CA
map0.32021/04/07 20:48:1539.633N119.979W6.2 5 km ( 3 mi) S of Cold Springs, NV
map1.52021/04/07 20:45:2238.817N122.803W2 6 km ( 4 mi) NW of The Geysers, CA
map2.22021/04/07 20:38:1232.780N115.436W11.95 6 km ( 4 mi) SW of Holtville, CA
map0.72021/04/07 20:36:0937.394N121.610W5.15 18 km (11 mi) E of East Foothills, CA
map2.32021/04/07 20:32:2432.780N115.437W13.95 6 km ( 4 mi) WSW of Holtville, CA
MAP3.22021/04/07 20:28:5132.778N115.438W15.85 7 km ( 4 mi) SW of Holtville, CA
map1.42021/04/07 19:47:4538.162N118.075W5.2 63 km (39 mi) SE of Hawthorne, NV
map2.22021/04/07 19:41:5132.782N115.437W13.18 6 km ( 4 mi) WSW of Holtville, CA
map1.42021/04/07 19:35:1432.777N115.431W10.19 6 km ( 4 mi) SW of Holtville, CA
map0.82021/04/07 19:20:5033.356N116.348W11.71 11 km ( 7 mi) NNE of Borrego Springs, CA
map1.12021/04/07 19:18:3334.213N117.429W10.83 3 km ( 2 mi) WSW of Devore, CA
map0.22021/04/07 19:18:2633.472N116.571W11.69 13 km ( 8 mi) SE of Anza, CA
map0.92021/04/07 19:16:4438.833N122.816W1.61 8 km ( 5 mi) NW of The Geysers, CA
map2.92021/04/07 19:08:3232.786N115.438W15.25 6 km ( 4 mi) WSW of Holtville, CA
map2.42021/04/07 19:00:4032.789N115.442W11.62 6 km ( 4 mi) WSW of Holtville, CA
map0.42021/04/07 18:54:1038.816N122.827W2.54 7 km ( 5 mi) NW of The Geysers, CA
map0.82021/04/07 18:30:5033.518N116.524W12.02 14 km ( 9 mi) ESE of Anza, CA
map1.42021/04/07 18:26:5238.855N118.562W11.4 37 km (23 mi) N of Hawthorne, NV
map1.52021/04/07 18:08:1834.359N116.460W4.55 27 km (17 mi) N of Yucca Valley, CA
map2.52021/04/07 18:03:0036.548N121.140W4.93 22 km (13 mi) NE of Soledad, CA
map0.82021/04/07 17:53:4338.148N117.894W10.0 59 km (36 mi) W of Tonopah, NV
map0.12021/04/07 17:46:2633.593N116.803W7.06 13 km ( 8 mi) WNW of Anza, CA
map1.12021/04/07 17:24:2733.170N116.371W4.39 10 km ( 6 mi) S of Borrego Springs, CA
map0.82021/04/07 17:17:4135.872N117.675W9.94 22 km (14 mi) ESE of Little Lake, CA
map1.42021/04/07 17:10:1232.784N115.440W8.88 6 km ( 4 mi) WSW of Holtville, CA
map1.62021/04/07 16:52:5733.928N116.706W14.41 8 km ( 5 mi) E of Cabazon, CA
map1.02021/04/07 16:52:5433.928N116.706W14.77 8 km ( 5 mi) E of Cabazon, CA
map1.72021/04/07 16:46:0337.320N121.039W0.78 2 km ( 1 mi) WNW of Newman, CA
map0.92021/04/07 15:53:3138.761N122.718W1.57 4 km ( 2 mi) ESE of The Geysers, CA
map1.32021/04/07 15:11:2934.007N118.208W13.03 3 km ( 2 mi) NW of Maywood, CA
map1.82021/04/07 15:08:3334.293N117.074W4.69 10 km ( 6 mi) NNE of Running Springs, CA
map1.52021/04/07 14:57:4238.812N122.798W2.9 5 km ( 3 mi) NW of The Geysers, CA
map0.32021/04/07 14:52:0238.839N122.782W1.71 5 km ( 3 mi) WNW of Cobb, CA
map1.52021/04/07 14:48:1532.785N115.438W8.94 6 km ( 4 mi) WSW of Holtville, CA
map1.22021/04/07 14:44:1936.969N121.430W6.68 13 km ( 8 mi) ESE of Gilroy, CA
map1.72021/04/07 14:33:5634.151N116.444W5.16 4 km ( 3 mi) NNW of Yucca Valley, CA
map1.32021/04/07 14:27:3633.053N115.587W9.47 4 km ( 2 mi) ENE of Westmorland, CA
map1.82021/04/07 14:22:1034.155N116.449W6.04 5 km ( 3 mi) NNW of Yucca Valley, CA
map1.22021/04/07 14:16:5734.153N116.445W5.41 5 km ( 3 mi) NNW of Yucca Valley, CA
map1.62021/04/07 13:57:5038.595N122.789W4.95 6 km ( 4 mi) NNE of Windsor, CA
map1.02021/04/07 13:50:4433.873N117.509W1.54 3 km ( 2 mi) NNW of Quarry at CORONA (Probable quarry explosion)
map2.92021/04/07 13:41:5935.093N116.963W1.92 22 km (14 mi) NNE of Barstow, CA
map0.52021/04/07 13:34:4138.828N122.852W2.15 10 km ( 6 mi) NW of The Geysers, CA
map0.52021/04/07 13:33:3838.826N122.852W2.26 10 km ( 6 mi) WNW of The Geysers, CA
MAP3.32021/04/07 13:18:1736.765N120.701W3.53 23 km (14 mi) S of South Dos Palos, CA
map1.72021/04/07 12:30:2833.867N117.507W1.27 2 km ( 1 mi) NNW of Quarry at CORONA (Probable quarry explosion)
map1.02021/04/07 12:23:1138.157N117.948W11.8 64 km (39 mi) W of Tonopah, NV
map0.72021/04/07 12:22:4435.778N117.600W6.95 18 km (11 mi) W of Searles Valley, CA
map1.22021/04/07 12:04:3934.991N118.181W-0.8 2 km ( 1 mi) SSW of Quarry at TPO-DBM (Probable quarry explosion)
map1.82021/04/07 11:32:4737.940N122.320W5.24 1 km ( 0 mi) SW of East Richmond Heights, CA
map1.32021/04/07 11:22:1836.473N121.038W3.29 25 km (16 mi) NE of Greenfield, CA
map1.82021/04/07 11:21:3535.626N117.482W4.16 17 km (11 mi) SSW of Searles Valley, CA
map2.42021/04/07 11:20:0335.091N116.962W3.05 22 km (14 mi) NNE of Barstow, CA
map1.92021/04/07 11:10:3038.166N117.844W8.0 55 km (34 mi) WNW of Tonopah, NV
map0.62021/04/07 10:54:5538.794N122.812W4.19 5 km ( 3 mi) WNW of The Geysers, CA
map1.32021/04/07 10:53:4935.064N118.330W-0.81 2 km ( 1 mi) NNW of Quarry at MOJAVE (Probable quarry explosion)
map0.92021/04/07 10:26:3838.815N122.794W3.2 5 km ( 3 mi) NW of The Geysers, CA
map0.42021/04/07 10:15:2838.796N122.796W2.62 4 km ( 2 mi) WNW of The Geysers, CA
map0.92021/04/07 09:49:5738.774N122.720W1.91 3 km ( 2 mi) E of The Geysers, CA
map1.62021/04/07 09:49:4935.976N117.397W2.34 23 km (14 mi) N of Searles Valley, CA
map0.42021/04/07 09:31:5135.693N117.519W6.19 13 km ( 8 mi) SW of Searles Valley, CA
map0.32021/04/07 09:31:2236.151N117.835W2.29 16 km (10 mi) NE of Coso Junction, CA
map0.32021/04/07 09:29:3338.791N122.801W3.57 4 km ( 3 mi) WNW of The Geysers, CA
map0.82021/04/07 09:26:5334.367N117.634W9.79 1 km ( 0 mi) N of Wrightwood, CA
map0.72021/04/07 09:24:0333.323N116.352W8.74 8 km ( 5 mi) NNE of Borrego Springs, CA
map1.02021/04/07 09:20:3338.876N122.953W3.86 10 km ( 6 mi) NE of Cloverdale, CA
map1.02021/04/07 09:09:4635.668N117.472W4.7 13 km ( 8 mi) SSW of Searles Valley, CA
map1.52021/04/07 08:57:3335.687N117.519W6.3 14 km ( 9 mi) SW of Searles Valley, CA
map1.12021/04/07 08:26:1438.761N122.419W8.58 13 km ( 8 mi) ESE of Hidden Valley Lake, CA
map2.52021/04/07 08:17:1738.523N122.583W9.21 6 km ( 4 mi) S of Calistoga, CA
map1.72021/04/07 07:58:1034.561N116.254W2.95 20 km (12 mi) SSW of Ludlow, CA
map0.72021/04/07 07:55:5738.168N117.954W5.1 64 km (40 mi) W of Tonopah, NV
map1.32021/04/07 07:43:1938.174N117.872W9.7 57 km (36 mi) WNW of Tonopah, NV
map1.12021/04/07 07:38:5235.766N117.574W8.16 15 km (10 mi) W of Searles Valley, CA
map0.12021/04/07 07:24:3538.791N122.807W3.66 5 km ( 3 mi) WNW of The Geysers, CA
map2.12021/04/07 07:24:2841.232N122.061W8.01 7 km ( 4 mi) ESE of McCloud, CA
map0.42021/04/07 06:52:0138.792N122.784W0.83 3 km ( 2 mi) NW of The Geysers, CA
map2.42021/04/07 06:45:3637.949N122.067W11.01 1 km ( 0 mi) W of Pleasant Hill, CA
MAP3.62021/04/07 06:42:0535.610N117.410W8.97 17 km (11 mi) S of Trona, CA
map0.62021/04/07 06:29:4338.793N122.800W3.14 4 km ( 3 mi) WNW of The Geysers, CA
map0.52021/04/07 06:28:1236.218N117.898W4.31 12 km ( 7 mi) SE of Olancha, CA
map1.62021/04/07 06:25:2435.648N117.489W6.17 15 km (10 mi) SSW of Searles Valley, CA
MAP3.22021/04/07 06:17:3040.860N117.223W7.0 34 km (21 mi) NW of Battle Mountain, NV
map-0.02021/04/07 06:08:2738.792N122.789W0.11 3 km ( 2 mi) WNW of The Geysers, CA
map0.92021/04/07 05:58:2938.762N122.772W9.64 2 km ( 1 mi) SW of The Geysers, CA
map2.92021/04/07 05:56:1438.790N122.799W3.59 4 km ( 2 mi) WNW of The Geysers, CA
map0.82021/04/07 05:45:0033.505N116.502W14 17 km (10 mi) ESE of Anza, CA
map0.92021/04/07 05:39:5235.975N120.527W9.95 12 km ( 8 mi) NW of Parkfield, CA
map0.92021/04/07 05:34:1438.816N122.796W3.04 6 km ( 3 mi) NW of The Geysers, CA
map0.42021/04/07 05:30:4638.792N122.799W3.49 4 km ( 3 mi) WNW of The Geysers, CA
map0.92021/04/07 05:23:4838.807N122.807W5.45 5 km ( 3 mi) NW of The Geysers, CA
map0.72021/04/07 05:22:5536.020N117.777W1.1 15 km ( 9 mi) NE of Little Lake, CA
map2.42021/04/07 05:13:4338.791N122.799W3.22 4 km ( 2 mi) WNW of The Geysers, CA
map0.92021/04/07 05:08:3235.904N117.742W9.74 15 km (10 mi) ESE of Little Lake, CA
map0.82021/04/07 04:52:5433.591N116.806W6.95 13 km ( 8 mi) WNW of Anza, CA
map0.62021/04/07 03:56:5738.828N122.815W2.1 8 km ( 5 mi) NW of The Geysers, CA
map1.72021/04/07 03:09:5433.828N116.992W11.39 6 km ( 4 mi) NNW of San Jacinto, CA
map1.22021/04/07 02:45:1633.953N118.364W21.21 2 km ( 1 mi) WSW of Inglewood, CA
map0.72021/04/07 02:38:4836.020N117.776W1.25 15 km ( 9 mi) NE of Little Lake, CA
map0.12021/04/07 02:37:0436.655N116.268W7.1 52 km (32 mi) ESE of Beatty, NV
map1.22021/04/07 02:35:1937.411N121.758W7.22 6 km ( 4 mi) ENE of East Foothills, CA
map0.92021/04/07 02:31:5036.029N117.779W2.05 15 km (10 mi) E of Coso Junction, CA
map1.82021/04/07 02:17:2336.544N121.132W5.78 22 km (14 mi) NE of Soledad, CA
map0.52021/04/07 02:05:5936.022N117.776W2.31 15 km ( 9 mi) NE of Little Lake, CA
map-0.22021/04/07 02:05:5736.024N117.770W2.08 16 km (10 mi) NE of Little Lake, CA
map1.52021/04/07 01:53:5038.137N117.977W9.4 66 km (41 mi) W of Tonopah, NV
map1.62021/04/07 01:50:0638.135N117.978W9.0 66 km (41 mi) W of Tonopah, NV
map0.52021/04/07 01:44:3235.958N117.670W3.68 21 km (13 mi) E of Little Lake, CA
map1.32021/04/07 01:39:1532.882N115.520W7.18 6 km ( 4 mi) NE of Imperial, CA
map0.82021/04/07 01:09:5634.123N117.458W10.79 3 km ( 2 mi) N of Fontana, CA
map0.92021/04/07 01:03:2736.025N117.769W1.26 16 km (10 mi) NE of Little Lake, CA
map2.32021/04/07 01:02:1636.023N117.777W1.7 15 km ( 9 mi) NE of Little Lake, CA
map0.72021/04/07 01:02:0436.024N117.773W1.75 15 km (10 mi) NE of Little Lake, CA
map1.02021/04/07 00:43:3735.811N117.640W8.99 21 km (13 mi) N of Ridgecrest, CA
map1.72021/04/07 00:38:1738.836N118.670W9.7 35 km (22 mi) N of Hawthorne, NV
map2.22021/04/07 00:02:1340.633N119.534W13.1 92 km (57 mi) ENE of Janesville, CA
map2.02021/04/06 23:46:0733.923N116.715W14.23 7 km ( 4 mi) E of Cabazon, CA
map0.72021/04/06 23:42:4937.425N117.079W6.5 64 km (40 mi) NNW of Beatty, NV
map0.82021/04/06 23:42:0737.410N117.064W0.0 62 km (39 mi) NNW of Beatty, NV
map1.02021/04/06 23:30:2335.969N117.387W2.26 23 km (14 mi) N of Searles Valley, CA
map0.72021/04/06 22:39:0240.591N119.531W8.7 90 km (56 mi) ENE of Janesville, CA
map0.42021/04/06 22:23:4938.155N118.126W6.8 60 km (37 mi) SE of Hawthorne, NV
map0.92021/04/06 22:18:3934.127N117.444W7.82 4 km ( 2 mi) NNE of Fontana, CA
map1.12021/04/06 22:07:2740.617N119.525W14.2 92 km (57 mi) ENE of Janesville, CA
map0.52021/04/06 22:06:2833.828N116.988W11.82 6 km ( 3 mi) NNW of San Jacinto, CA
map0.72021/04/06 21:46:2938.996N123.484W6.05 10 km ( 6 mi) W of Boonville, CA
map0.12021/04/06 21:40:2337.647N118.921W3.99 5 km ( 3 mi) ENE of Mammoth Lakes, CA
map1.22021/04/06 21:39:3635.572N118.387W1.14 9 km ( 6 mi) ESE of Lake Isabella, CA
map0.72021/04/06 21:11:4637.531N118.722W7.94 26 km (16 mi) ESE of Mammoth Lakes, CA
map0.22021/04/06 21:08:4636.839N115.966W8.6 70 km (44 mi) N of Pahrump, NV
map1.42021/04/06 20:52:2739.347N123.238W7.16 10 km ( 6 mi) NNW of Redwood Valley, CA
map0.42021/04/06 20:44:5035.946N117.717W1.67 17 km (11 mi) E of Little Lake, CA
map1.12021/04/06 20:38:2640.617N119.535W7.9 91 km (57 mi) ENE of Janesville, CA
map1.12021/04/06 20:30:4440.633N119.526W14.9 92 km (57 mi) ENE of Janesville, CA
map0.12021/04/06 20:28:3538.846N122.802W1 7 km ( 5 mi) WNW of Cobb, CA
map0.22021/04/06 20:26:3636.686N115.724W0.0 59 km (37 mi) NNE of Pahrump, NV
map1.42021/04/06 20:22:4238.166N117.885W10.9 58 km (36 mi) W of Tonopah, NV
map1.52021/04/06 20:21:3738.816N122.822W2.28 7 km ( 4 mi) NW of The Geysers, CA
map0.52021/04/06 20:18:0536.664N115.702W0.0 58 km (36 mi) NNE of Pahrump, NV
map0.92021/04/06 20:12:5438.839N122.837W1.9 10 km ( 6 mi) NW of The Geysers, CA
map0.22021/04/06 20:12:3338.757N122.726W2.82 3 km ( 2 mi) SE of The Geysers, CA
map1.22021/04/06 20:10:0738.789N122.446W9.77 10 km ( 6 mi) ESE of Hidden Valley Lake, CA
map0.82021/04/06 20:06:4635.860N117.683W10.71 22 km (14 mi) ESE of Little Lake, CA
map1.32021/04/06 20:04:4533.081N115.579W8.16 6 km ( 4 mi) NE of Westmorland, CA
map0.42021/04/06 20:04:3133.598N116.807W6.27 13 km ( 8 mi) WNW of Anza, CA
map1.72021/04/06 20:02:3040.620N119.560W0.0 89 km (55 mi) ENE of Janesville, CA
map0.32021/04/06 20:01:0538.840N122.837W1.69 10 km ( 6 mi) NW of The Geysers, CA
map1.52021/04/06 19:51:5638.149N117.902W9.0 59 km (37 mi) W of Tonopah, NV
map1.02021/04/06 19:43:3235.960N117.482W1.29 23 km (14 mi) NNW of Searles Valley, CA
map-0.12021/04/06 19:40:5636.649N116.269W6.5 52 km (32 mi) SE of Beatty, NV
map2.12021/04/06 18:57:4933.086N115.603W10.49 6 km ( 4 mi) NNE of Westmorland, CA
map0.92021/04/06 18:56:4336.836N115.959W8.5 70 km (43 mi) N of Pahrump, NV
map1.02021/04/06 17:54:5638.838N118.698W15.7 35 km (22 mi) N of Hawthorne, NV
map0.32021/04/06 17:47:5433.522N116.855W2.44 9 km ( 6 mi) N of Aguanga, CA
map1.02021/04/06 17:33:1333.950N118.379W18.91 3 km ( 2 mi) WNW of Lennox, CA
map0.22021/04/06 17:32:1838.754N122.709W1.46 5 km ( 3 mi) ESE of The Geysers, CA
map0.92021/04/06 17:18:3135.680N117.476W4.65 12 km ( 7 mi) SW of Searles Valley, CA
map1.62021/04/06 17:16:2137.928N118.024W5.9 69 km (43 mi) NNE of Dixon Lane-Meadow Creek, CA
map0.92021/04/06 17:12:0734.153N117.549W10.66 4 km ( 3 mi) NE of Rancho Cucamonga, CA
map0.52021/04/06 17:04:2333.587N116.810W8.32 13 km ( 8 mi) WNW of Anza, CA
map2.02021/04/06 16:18:5035.040N117.686W-0.82 1 km ( 1 mi) NNW of Quarry at BORON (Probable quarry explosion)
map0.72021/04/06 16:06:1139.441N118.467W12.5 27 km (17 mi) E of Fallon, NV
map2.22021/04/06 15:54:2840.626N119.549W14.6 90 km (56 mi) ENE of Janesville, CA
map1.92021/04/06 15:49:1435.765N117.579W6.8 16 km (10 mi) W of Searles Valley, CA
map2.02021/04/06 15:39:3336.483N121.055W6.91 25 km (15 mi) NE of Greenfield, CA
map1.12021/04/06 15:29:3436.650N121.268W8.47 20 km (12 mi) SSE of Ridgemark, CA
map1.82021/04/06 15:21:2138.825N122.810W2.08 7 km ( 4 mi) NW of The Geysers, CA
map1.62021/04/06 15:14:5935.784N117.638W5.67 18 km (11 mi) N of Ridgecrest, CA
map1.12021/04/06 15:08:1538.156N118.070W3.0 63 km (39 mi) SE of Hawthorne, NV
map0.92021/04/06 14:56:1835.969N117.317W0.5 23 km (15 mi) NNE of Trona, CA
map1.82021/04/06 14:49:4439.422N122.955W6.52 28 km (17 mi) NE of Redwood Valley, CA
map1.12021/04/06 14:37:4932.843N116.017W9.08 12 km ( 8 mi) N of Ocotillo, CA
map0.72021/04/06 14:17:2135.404N117.401W3.11 21 km (13 mi) E of Johannesburg, CA
map0.12021/04/06 14:09:5038.811N122.819W2.44 7 km ( 4 mi) NW of The Geysers, CA
map1.12021/04/06 14:05:2033.031N115.987W8.86 18 km (11 mi) SE of Ocotillo Wells, CA
map0.72021/04/06 13:56:2533.837N116.983W10.96 6 km ( 4 mi) NNW of San Jacinto, CA
map0.92021/04/06 13:25:0236.554N121.135W8.23 22 km (14 mi) NE of Soledad, CA
map1.92021/04/06 13:05:4933.945N118.379W22.32 3 km ( 2 mi) WNW of Lennox, CA
map2.22021/04/06 13:05:3133.949N118.359W20.59 1 km ( 1 mi) NNW of Lennox, CA
map0.52021/04/06 13:04:1539.431N119.695W12.0 13 km ( 8 mi) SSE of Sparks, NV
map0.82021/04/06 12:52:5238.786N122.739W1.69 2 km ( 1 mi) ENE of The Geysers, CA
map1.82021/04/06 12:19:3436.560N121.143W6.08 22 km (14 mi) NE of Soledad, CA
map1.02021/04/06 12:09:3536.053N118.010W2.54 6 km ( 4 mi) W of Coso Junction, CA
map0.62021/04/06 12:07:5335.723N117.558W8.88 15 km ( 9 mi) WSW of Searles Valley, CA
map0.22021/04/06 11:59:2238.819N122.823W2.36 7 km ( 5 mi) NW of The Geysers, CA
map1.32021/04/06 11:26:2833.492N116.781W2.64 9 km ( 6 mi) NE of Aguanga, CA
map1.42021/04/06 11:17:5432.638N117.016W15.28 3 km ( 2 mi) SSE of Bonita, CA
map1.42021/04/06 11:16:3233.068N115.005W-0.25 1 km ( 1 mi) NNW of Quarry at RUN (Probable quarry explosion)
map0.42021/04/06 10:46:5335.680N117.504W5.85 13 km ( 8 mi) SW of Searles Valley, CA
map1.12021/04/06 10:36:1537.404N117.064W13.6 61 km (38 mi) NNW of Beatty, NV
map1.32021/04/06 10:15:3735.642N117.469W9.43 15 km ( 9 mi) SSW of Searles Valley, CA
map0.12021/04/06 10:11:2733.646N116.697W13.63 10 km ( 6 mi) NNW of Anza, CA
map1.92021/04/06 09:58:5138.821N122.843W2.35 9 km ( 6 mi) WNW of The Geysers, CA
map0.12021/04/06 09:58:4836.021N117.800W1.33 13 km ( 8 mi) NE of Little Lake, CA
map0.52021/04/06 09:42:2237.473N118.850W3.57 21 km (13 mi) SSE of Mammoth Lakes, CA
map1.22021/04/06 09:33:3533.930N118.340W15.15 2 km ( 1 mi) SE of Lennox, CA
map0.52021/04/06 09:25:3236.019N117.801W1.7 13 km ( 8 mi) NE of Little Lake, CA
map0.52021/04/06 09:22:4234.868N116.396W7.6 27 km (17 mi) NW of Ludlow, CA
map0.72021/04/06 09:05:3135.670N117.518W7.46 15 km ( 9 mi) SW of Searles Valley, CA
map1.02021/04/06 08:58:4035.721N117.569W11.43 15 km ( 9 mi) NE of Ridgecrest, CA
map1.62021/04/06 08:36:0738.158N117.844W8.4 55 km (34 mi) W of Tonopah, NV
map1.32021/04/06 08:23:1138.824N122.855W2.36 10 km ( 6 mi) WNW of The Geysers, CA
map1.32021/04/06 08:22:3133.895N116.929W14.28 6 km ( 4 mi) SE of Beaumont, CA
map1.12021/04/06 08:11:3533.783N116.897W11.15 4 km ( 2 mi) N of Valle Vista, CA
map1.92021/04/06 08:05:2137.303N119.562W36.75 8 km ( 5 mi) ESE of Oakhurst, CA
map1.42021/04/06 07:41:3238.175N118.055W4.4 63 km (39 mi) SE of Hawthorne, NV
map1.62021/04/06 06:54:5538.799N122.811W3.33 5 km ( 3 mi) WNW of The Geysers, CA
map0.92021/04/06 06:47:4533.501N116.506W12.74 17 km (10 mi) ESE of Anza, CA
map1.82021/04/06 06:41:3333.489N116.783W2.8 9 km ( 6 mi) NE of Aguanga, CA
map0.52021/04/06 06:32:4033.384N116.337W10.78 15 km ( 9 mi) NNE of Borrego Springs, CA
map1.02021/04/06 06:22:2138.166N118.091W3.9 61 km (38 mi) SE of Hawthorne, NV
map1.12021/04/06 06:05:2836.036N117.642W1.58 26 km (16 mi) ENE of Little Lake, CA
map1.72021/04/06 05:59:5940.136N121.781W15.85 30 km (18 mi) NNW of Forest Ranch, CA
map1.22021/04/06 05:58:2838.168N117.887W11.3 58 km (36 mi) W of Tonopah, NV
map1.12021/04/06 05:55:0933.047N116.433W13.05 16 km (10 mi) ESE of Julian, CA
map0.52021/04/06 05:54:0433.444N116.668W14.39 12 km ( 8 mi) S of Anza, CA
map0.82021/04/06 05:47:5132.905N116.530W15.25 9 km ( 6 mi) N of Pine Valley, CA
map1.52021/04/06 05:00:1433.948N118.344W19.7 1 km ( 1 mi) S of Inglewood, CA
map1.62021/04/06 04:49:2337.636N119.384W7.61 21 km (13 mi) SE of Yosemite Valley, CA
map0.62021/04/06 04:30:1035.675N117.506W10.01 14 km ( 9 mi) SW of Searles Valley, CA
map1.82021/04/06 04:28:0034.059N118.885W9.17 9 km ( 6 mi) NW of Malibu, CA
map0.82021/04/06 03:58:4535.665N117.475W6.74 13 km ( 8 mi) SSW of Searles Valley, CA
map0.52021/04/06 03:44:2335.913N117.671W9.47 21 km (13 mi) E of Little Lake, CA
map0.62021/04/06 03:11:2433.659N116.719W15.13 9 km ( 6 mi) S of Idyllwild, CA
map1.22021/04/06 02:43:0338.805N122.737W2.11 2 km ( 1 mi) SSW of Cobb, CA